Observation data for Boys Ranch on 01/19/2019      Previous  Date  Next       Current Mesonet Observations  Soil Data  Daily Summary Page  Observations in Plain Language
KBY1 190600Z 33010KT 00/M03 A3015 RMK A01 T00011031  RH  079%=      5-min Rain = 0
KBY1 190601Z 33010KT 00/M03 A3015 RMK A01 T00011031  RH  079%=      5-min Rain = 0
KBY1 190602Z 34011KT 00/M03 A3015 RMK A01 T00011031  RH  079%=      5-min Rain = 0
KBY1 190603Z 33009KT 00/M03 A3015 RMK A01 T00011031  RH  079%=      5-min Rain = 0
KBY1 190604Z 33006KT 00/M03 A3015 RMK A01 T00011031  RH  079%=      5-min Rain = 0
KBY1 190605Z 33006KT 00/03 A3015 RMK A01 T00000-31  RH  080%=      5-min Rain = 0
KBY1 190606Z 34007KT 00/03 A3015 RMK A01 T00-00-30  RH  080%=      5-min Rain = 0
KBY1 190607Z 32006KT M00/M03 A3015 RMK A01 T10011031  RH  080%=      5-min Rain = 0
KBY1 190608Z 32008KT M00/M03 A3015 RMK A01 T10011031  RH  081%=      5-min Rain = 0
KBY1 190609Z 32007KT M00/M03 A3016 RMK A01 T10021031  RH  080%=      5-min Rain = 0
KBY1 190610Z 32009KT M00/M03 A3016 RMK A01 T10011032  RH  080%=      5-min Rain = 0
KBY1 190611Z 33005KT M00/M03 A3016 RMK A01 T10021032  RH  080%=      5-min Rain = 0
KBY1 190612Z 34007KT M00/M03 A3016 RMK A01 T10021032  RH  080%=      5-min Rain = 0
KBY1 190613Z 33009KT M00/M03 A3016 RMK A01 T10021032  RH  080%=      5-min Rain = 0
KBY1 190614Z 34014G19KT M00/M03 A3016 RMK A01 T10021034  RH  079%=      5-min Rain = 0
KBY1 190615Z 34013KT M00/M04 A3016 RMK A01 T10021035  RH  079%=      5-min Rain = 0
KBY1 190616Z 34011KT M00/M04 A3016 RMK A01 T10021036  RH  078%=      5-min Rain = 0
KBY1 190617Z 34012KT M00/M04 A3016 RMK A01 T10021036  RH  078%=      5-min Rain = 0
KBY1 190618Z 34011G17KT M00/M04 A3016 RMK A01 T10021036  RH  078%=      5-min Rain = 0
KBY1 190619Z 36010KT M00/M04 A3016 RMK A01 T10031037  RH  078%=      5-min Rain = 0
KBY1 190620Z 34011KT M00/M04 A3016 RMK A01 T10031037  RH  078%=      5-min Rain = 0
KBY1 190621Z 33007KT M00/M04 A3016 RMK A01 T10031037  RH  078%=      5-min Rain = 0
KBY1 190622Z 33009G14KT M00/M04 A3016 RMK A01 T10041037  RH  078%=      5-min Rain = 0
KBY1 190623Z 33011G18KT M00/M04 A3016 RMK A01 T10041038  RH  078%=      5-min Rain = 0
KBY1 190624Z 33013KT M00/M04 A3016 RMK A01 T10041038  RH  078%=      5-min Rain = 0
KBY1 190625Z 34011G16KT M00/M04 A3016 RMK A01 T10041038  RH  077%=      5-min Rain = 0
KBY1 190626Z 34011KT M00/M04 A3017 RMK A01 T10041039  RH  077%=      5-min Rain = 0
KBY1 190627Z 33007KT M00/M04 A3017 RMK A01 T10041039  RH  077%=      5-min Rain = 0
KBY1 190628Z 34011KT M01/M04 A3017 RMK A01 T10051039  RH  078%=      5-min Rain = 0
KBY1 190629Z 35013KT M01/M04 A3017 RMK A01 T10051039  RH  078%=      5-min Rain = 0
KBY1 190630Z 34010KT M01/M04 A3017 RMK A01 T10051040  RH  077%=      5-min Rain = 0
KBY1 190631Z 35012G17KT M01/M04 A3017 RMK A01 T10051040  RH  077%=      5-min Rain = 0
KBY1 190632Z 35014KT M01/M04 A3017 RMK A01 T10051041  RH  077%=      5-min Rain = 0
KBY1 190633Z 35013KT M01/M04 A3017 RMK A01 T10051041  RH  077%=      5-min Rain = 0
KBY1 190634Z 35014G19KT M01/M04 A3017 RMK A01 T10051042  RH  076%=      5-min Rain = 0
KBY1 190635Z 35012G18KT M01/M04 A3016 RMK A01 T10051042  RH  076%=      5-min Rain = 0
KBY1 190636Z 34010KT M01/M04 A3017 RMK A01 T10051042  RH  076%=      5-min Rain = 0
KBY1 190637Z 35017KT M01/M04 A3016 RMK A01 T10051042  RH  076%=      5-min Rain = 0
KBY1 190638Z 35012KT M01/M04 A3016 RMK A01 T10061043  RH  076%=      5-min Rain = 0
KBY1 190639Z 35010KT M01/M04 A3017 RMK A01 T10061042  RH  076%=      5-min Rain = 0
KBY1 190640Z 34010KT M01/M04 A3016 RMK A01 T10061042  RH  076%=      5-min Rain = 0
KBY1 190641Z 35009KT M01/M04 A3017 RMK A01 T10061042  RH  077%=      5-min Rain = 0
KBY1 190642Z 35010KT M01/M04 A3017 RMK A01 T10061042  RH  077%=      5-min Rain = 0
KBY1 190643Z 35008G13KT M01/M04 A3017 RMK A01 T10071042  RH  077%=      5-min Rain = 0
KBY1 190644Z 34011KT M01/M04 A3017 RMK A01 T10071042  RH  078%=      5-min Rain = 0
KBY1 190645Z 34011KT M01/M04 A3017 RMK A01 T10071042  RH  077%=      5-min Rain = 0
KBY1 190646Z 34011G17KT M01/M04 A3017 RMK A01 T10071042  RH  077%=      5-min Rain = 0
KBY1 190647Z 34009KT M01/M04 A3017 RMK A01 T10071042  RH  077%=      5-min Rain = 0
KBY1 190648Z 35010G15KT M01/M04 A3017 RMK A01 T10061041  RH  077%=      5-min Rain = 0
KBY1 190649Z 34008KT M01/M04 A3017 RMK A01 T10061041  RH  077%=      5-min Rain = 0
KBY1 190650Z 34007KT M01/M04 A3017 RMK A01 T10061041  RH  077%=      5-min Rain = 0
KBY1 190651Z 35007KT M01/M04 A3017 RMK A01 T10071041  RH  078%=      5-min Rain = 0
KBY1 190652Z 34007KT M01/M04 A3017 RMK A01 T10071041  RH  078%=      5-min Rain = 0
KBY1 190653Z 34007KT M01/M04 A3017 RMK A01 T10071040  RH  078%=      5-min Rain = 0
KBY1 190654Z 33009KT M01/M04 A3017 RMK A01 T10071040  RH  078%=      5-min Rain = 0
KBY1 190655Z 34009KT M01/M04 A3017 RMK A01 T10071040  RH  078%=      5-min Rain = 0
KBY1 190656Z 34008KT M01/M04 A3017 RMK A01 T10071041  RH  078%=      5-min Rain = 0
KBY1 190657Z 33008KT M01/M04 A3017 RMK A01 T10071041  RH  078%=      5-min Rain = 0
KBY1 190658Z 33007KT M01/M04 A3017 RMK A01 T10071041  RH  078%=      5-min Rain = 0
KBY1 190659Z 34007KT M01/M04 A3017 RMK A01 T10071040  RH  079%=      5-min Rain = 0
KBY1 190700Z 34009KT M01/M04 A3017 RMK A01 T10081040  RH  079%=      5-min Rain = 0
KBY1 190701Z 33007KT M01/M04 A3017 RMK A01 T10081040  RH  078%=      5-min Rain = 0
KBY1 190702Z 34007KT M01/M04 A3017 RMK A01 T10081041  RH  078%=      5-min Rain = 0
KBY1 190703Z 34007KT M01/M04 A3018 RMK A01 T10081040  RH  079%=      5-min Rain = 0
KBY1 190704Z 34006KT M01/M04 A3018 RMK A01 T10081040  RH  079%=      5-min Rain = 0
KBY1 190705Z 33006KT M01/M04 A3017 RMK A01 T10081040  RH  079%=      5-min Rain = 0
KBY1 190706Z 34007KT M01/M04 A3017 RMK A01 T10091040  RH  079%=      5-min Rain = 0
KBY1 190707Z 32006KT M01/M04 A3017 RMK A01 T10091040  RH  079%=      5-min Rain = 0
KBY1 190708Z 32006KT M01/M04 A3017 RMK A01 T10091040  RH  079%=      5-min Rain = 0
KBY1 190709Z 32006KT M01/M04 A3017 RMK A01 T10091040  RH  079%=      5-min Rain = 0
KBY1 190710Z 33005KT M01/M04 A3017 RMK A01 T10091040  RH  079%=      5-min Rain = 0
KBY1 190711Z 32007KT M01/M04 A3017 RMK A01 T10091040  RH  080%=      5-min Rain = 0
KBY1 190712Z 31006KT M01/M04 A3017 RMK A01 T10091040  RH  080%=      5-min Rain = 0
KBY1 190713Z 31006KT M01/M04 A3017 RMK A01 T10091040  RH  080%=      5-min Rain = 0
KBY1 190714Z 31006KT M01/M04 A3017 RMK A01 T10101040  RH  080%=      5-min Rain = 0
KBY1 190715Z 32005KT M01/M04 A3017 RMK A01 T10091040  RH  080%=      5-min Rain = 0
KBY1 190716Z 31007KT M01/M04 A3017 RMK A01 T10101041  RH  079%=      5-min Rain = 0
KBY1 190717Z 31008KT M01/M04 A3017 RMK A01 T10101041  RH  079%=      5-min Rain = 0
KBY1 190718Z 34008KT M01/M04 A3018 RMK A01 T10091041  RH  079%=      5-min Rain = 0
KBY1 190719Z 32007KT M01/M04 A3018 RMK A01 T10091041  RH  079%=      5-min Rain = 0
KBY1 190720Z 32008KT M01/M04 A3018 RMK A01 T10091041  RH  079%=      5-min Rain = 0
KBY1 190721Z 32008KT M01/M04 A3018 RMK A01 T10091041  RH  079%=      5-min Rain = 0
KBY1 190722Z 32007KT M01/M04 A3018 RMK A01 T10091041  RH  079%=      5-min Rain = 0
KBY1 190723Z 34008KT M01/M04 A3018 RMK A01 T10091041  RH  079%=      5-min Rain = 0
KBY1 190724Z 34008KT M01/M04 A3018 RMK A01 T10091041  RH  079%=      5-min Rain = 0
KBY1 190725Z 34007KT M01/M04 A3018 RMK A01 T10091041  RH  079%=      5-min Rain = 0
KBY1 190726Z 33008KT M01/M04 A3018 RMK A01 T10091041  RH  079%=      5-min Rain = 0
KBY1 190727Z 34009KT M01/M04 A3018 RMK A01 T10091041  RH  079%=      5-min Rain = 0
KBY1 190728Z 34007KT M01/M04 A3018 RMK A01 T10091042  RH  079%=      5-min Rain = 0
KBY1 190729Z 35009KT M01/M04 A3018 RMK A01 T10101042  RH  079%=      5-min Rain = 0
KBY1 190730Z 33008KT M01/M04 A3018 RMK A01 T10101043  RH  078%=      5-min Rain = 0
KBY1 190731Z 34009KT M01/M04 A3018 RMK A01 T10101042  RH  078%=      5-min Rain = 0
KBY1 190732Z 33007KT M01/M04 A3018 RMK A01 T10101042  RH  078%=      5-min Rain = 0
KBY1 190733Z 33007KT M01/M04 A3018 RMK A01 T10101042  RH  079%=      5-min Rain = 0
KBY1 190734Z 33007KT M01/M04 A3018 RMK A01 T10101042  RH  079%=      5-min Rain = 0
KBY1 190735Z 32005KT M01/M04 A3018 RMK A01 T10101042  RH  079%=      5-min Rain = 0
KBY1 190736Z 33006KT M01/M04 A3018 RMK A01 T10111042  RH  079%=      5-min Rain = 0
KBY1 190737Z 32006KT M01/M04 A3018 RMK A01 T10111042  RH  079%=      5-min Rain = 0
KBY1 190738Z 32003KT M01/M04 A3018 RMK A01 T10111042  RH  080%=      5-min Rain = 0
KBY1 190739Z 32004KT M01/M04 A3018 RMK A01 T10121042  RH  080%=      5-min Rain = 0
KBY1 190740Z 32005KT M01/M04 A3019 RMK A01 T10121042  RH  080%=      5-min Rain = 0
KBY1 190741Z 32005KT M01/M04 A3019 RMK A01 T10131042  RH  081%=      5-min Rain = 0
KBY1 190742Z 32007KT M01/M04 A3019 RMK A01 T10131042  RH  081%=      5-min Rain = 0
KBY1 190743Z 32005KT M01/M04 A3019 RMK A01 T10131042  RH  081%=      5-min Rain = 0
KBY1 190744Z 32006KT M01/M04 A3019 RMK A01 T10131042  RH  081%=      5-min Rain = 0
KBY1 190745Z 32006KT M01/M04 A3019 RMK A01 T10131042  RH  081%=      5-min Rain = 0
KBY1 190746Z 32006KT M01/M04 A3019 RMK A01 T10131042  RH  081%=      5-min Rain = 0
KBY1 190747Z 32005KT M01/M04 A3019 RMK A01 T10131042  RH  081%=      5-min Rain = 0
KBY1 190748Z 31005KT M01/M04 A3019 RMK A01 T10131042  RH  081%=      5-min Rain = 0
KBY1 190749Z 31004KT M01/M04 A3019 RMK A01 T10131041  RH  081%=      5-min Rain = 0
KBY1 190750Z 30006KT M01/M04 A3019 RMK A01 T10141042  RH  081%=      5-min Rain = 0
KBY1 190751Z 31006KT M01/M04 A3019 RMK A01 T10141042  RH  082%=      5-min Rain = 0
KBY1 190752Z 30005KT M01/M04 A3019 RMK A01 T10141042  RH  082%=      5-min Rain = 0
KBY1 190753Z 30004KT M01/M04 A3019 RMK A01 T10141042  RH  082%=      5-min Rain = 0
KBY1 190754Z 30004KT M02/M04 A3019 RMK A01 T10151042  RH  082%=      5-min Rain = 0
KBY1 190755Z 30005KT M02/M04 A3019 RMK A01 T10151042  RH  082%=      5-min Rain = 0
KBY1 190756Z 30005KT M02/M04 A3019 RMK A01 T10151042  RH  082%=      5-min Rain = 0
KBY1 190757Z 30006KT M02/M04 A3019 RMK A01 T10151041  RH  082%=      5-min Rain = 0
KBY1 190758Z 30005KT M02/M04 A3019 RMK A01 T10151041  RH  082%=      5-min Rain = 0
KBY1 190759Z 31006KT M02/M04 A3019 RMK A01 T10151041  RH  082%=      5-min Rain = 0
KBY1 190800Z 30006KT M02/M04 A3019 RMK A01 T10151041  RH  082%=      5-min Rain = 0
KBY1 190801Z 30005KT M02/M04 A3019 RMK A01 T10151041  RH  082%=      5-min Rain = 0
KBY1 190802Z 30005KT M01/M04 A3019 RMK A01 T10141041  RH  082%=      5-min Rain = 0
KBY1 190803Z 30005KT M01/M04 A3019 RMK A01 T10141041  RH  082%=      5-min Rain = 0
KBY1 190804Z 31005KT M01/M04 A302 RMK A01 T10141041  RH  082%=      5-min Rain = 0
KBY1 190805Z 30005KT M01/M04 A302 RMK A01 T10141041  RH  082%=      5-min Rain = 0
KBY1 190806Z 30005KT M01/M04 A302 RMK A01 T10141040  RH  082%=      5-min Rain = 0
KBY1 190807Z 31007KT M01/M04 A302 RMK A01 T10141040  RH  082%=      5-min Rain = 0
KBY1 190808Z 31008KT M01/M04 A302 RMK A01 T10141040  RH  083%=      5-min Rain = 0
KBY1 190809Z 31006KT M01/M04 A302 RMK A01 T10141040  RH  082%=      5-min Rain = 0
KBY1 190810Z 30005KT M01/M04 A302 RMK A01 T10131040  RH  082%=      5-min Rain = 0
KBY1 190811Z 31006KT M01/M04 A302 RMK A01 T10131040  RH  082%=      5-min Rain = 0
KBY1 190812Z 31005KT M01/M04 A302 RMK A01 T10131040  RH  082%=      5-min Rain = 0
KBY1 190813Z 31006KT M01/M04 A302 RMK A01 T10131040  RH  082%=      5-min Rain = 0
KBY1 190814Z 31006KT M01/M04 A302 RMK A01 T10131040  RH  082%=      5-min Rain = 0
KBY1 190815Z 31006KT M01/M04 A302 RMK A01 T10131040  RH  082%=      5-min Rain = 0
KBY1 190816Z 31005KT M01/M04 A302 RMK A01 T10131040  RH  082%=      5-min Rain = 0
KBY1 190817Z 31005KT M01/M04 A302 RMK A01 T10141040  RH  082%=      5-min Rain = 0
KBY1 190818Z 32007KT M01/M04 A302 RMK A01 T10141040  RH  082%=      5-min Rain = 0
KBY1 190819Z 32006KT M01/M04 A302 RMK A01 T10141040  RH  083%=      5-min Rain = 0
KBY1 190820Z 31006KT M01/M04 A302 RMK A01 T10141040  RH  082%=      5-min Rain = 0
KBY1 190821Z 31005KT M01/M04 A302 RMK A01 T10141040  RH  082%=      5-min Rain = 0
KBY1 190822Z 32005KT M01/M04 A302 RMK A01 T10141040  RH  083%=      5-min Rain = 0
KBY1 190823Z 31006KT M01/M04 A302 RMK A01 T10141040  RH  083%=      5-min Rain = 0
KBY1 190824Z 31006KT M02/M04 A302 RMK A01 T10151040  RH  083%=      5-min Rain = 0
KBY1 190825Z 32005KT M02/M04 A302 RMK A01 T10151040  RH  083%=      5-min Rain = 0
KBY1 190826Z 32004KT M02/M04 A302 RMK A01 T10151040  RH  083%=      5-min Rain = 0
KBY1 190827Z 32004KT M02/M04 A302 RMK A01 T10151040  RH  083%=      5-min Rain = 0
KBY1 190828Z 33004KT M02/M04 A3021 RMK A01 T10151040  RH  083%=      5-min Rain = 0
KBY1 190829Z 32003KT M02/M04 A3021 RMK A01 T10161040  RH  083%=      5-min Rain = 0
KBY1 190830Z 33005KT M02/M04 A302 RMK A01 T10161040  RH  084%=      5-min Rain = 0
KBY1 190831Z 33004KT M02/M04 A302 RMK A01 T10151040  RH  084%=      5-min Rain = 0
KBY1 190832Z 33003KT M02/M04 A302 RMK A01 T10161040  RH  084%=      5-min Rain = 0
KBY1 190833Z 32003KT M02/M04 A302 RMK A01 T10161040  RH  084%=      5-min Rain = 0
KBY1 190834Z 33004KT M02/M04 A302 RMK A01 T10171040  RH  084%=      5-min Rain = 0
KBY1 190835Z 33003KT M02/M04 A302 RMK A01 T10171040  RH  084%=      5-min Rain = 0
KBY1 190836Z 33003KT M02/M04 A302 RMK A01 T10161040  RH  084%=      5-min Rain = 0
KBY1 190837Z 32003KT M02/M04 A302 RMK A01 T10171040  RH  084%=      5-min Rain = 0
KBY1 190838Z 33003KT M02/M04 A302 RMK A01 T10161040  RH  084%=      5-min Rain = 0
KBY1 190839Z 32003KT M02/M04 A302 RMK A01 T10161040  RH  084%=      5-min Rain = 0
KBY1 190840Z 33003KT M02/M04 A302 RMK A01 T10171041  RH  084%=      5-min Rain = 0
KBY1 190841Z 33003KT M02/M04 A302 RMK A01 T10171041  RH  084%=      5-min Rain = 0
KBY1 190842Z 32003KT M02/M04 A302 RMK A01 T10171041  RH  084%=      5-min Rain = 0
KBY1 190843Z 32002KT M02/M04 A302 RMK A01 T10181042  RH  084%=      5-min Rain = 0
KBY1 190844Z 32003KT M02/M04 A302 RMK A01 T10181042  RH  084%=      5-min Rain = 0
KBY1 190845Z 33003KT M02/M04 A302 RMK A01 T10181042  RH  084%=      5-min Rain = 0
KBY1 190846Z 32003KT M02/M04 A302 RMK A01 T10191042  RH  084%=      5-min Rain = 0
KBY1 190847Z 33003KT M02/M04 A302 RMK A01 T10191042  RH  084%=      5-min Rain = 0
KBY1 190848Z 32002KT M02/M04 A302 RMK A01 T10191042  RH  084%=      5-min Rain = 0
KBY1 190849Z 32002KT M02/M04 A302 RMK A01 T10191042  RH  084%=      5-min Rain = 0
KBY1 190850Z 32002KT M02/M04 A302 RMK A01 T10201043  RH  084%=      5-min Rain = 0
KBY1 190851Z 31003KT M02/M04 A302 RMK A01 T10201043  RH  084%=      5-min Rain = 0
KBY1 190852Z 31003KT M02/M04 A302 RMK A01 T10211043  RH  085%=      5-min Rain = 0
KBY1 190853Z 31003KT M02/M04 A302 RMK A01 T10211044  RH  085%=      5-min Rain = 0
KBY1 190854Z 30003KT M02/M04 A302 RMK A01 T10221044  RH  085%=      5-min Rain = 0
KBY1 190855Z 30004KT M02/M04 A302 RMK A01 T10231044  RH  085%=      5-min Rain = 0
KBY1 190856Z 30003KT M02/M04 A302 RMK A01 T10221043  RH  086%=      5-min Rain = 0
KBY1 190857Z 31003KT M02/M04 A302 RMK A01 T10231044  RH  086%=      5-min Rain = 0
KBY1 190858Z 31003KT M02/M04 A302 RMK A01 T10231043  RH  086%=      5-min Rain = 0
KBY1 190859Z 31003KT M02/M04 A302 RMK A01 T10231044  RH  086%=      5-min Rain = 0
KBY1 190900Z 31004KT M02/M04 A302 RMK A01 T10231044  RH  086%=      5-min Rain = 0
KBY1 190901Z 31004KT M02/M04 A302 RMK A01 T10241044  RH  086%=      5-min Rain = 0
KBY1 190902Z 31004KT M02/M05 A302 RMK A01 T10241045  RH  086%=      5-min Rain = 0
KBY1 190903Z 31005KT M02/M04 A302 RMK A01 T10241044  RH  086%=      5-min Rain = 0
KBY1 190904Z 31004KT M02/M04 A302 RMK A01 T10241043  RH  087%=      5-min Rain = 0
KBY1 190905Z 31004KT M02/M04 A302 RMK A01 T10241043  RH  086%=      5-min Rain = 0
KBY1 190906Z 31004KT M02/M04 A302 RMK A01 T10231043  RH  086%=      5-min Rain = 0
KBY1 190907Z 31004KT M02/M04 A302 RMK A01 T10231043  RH  086%=      5-min Rain = 0
KBY1 190908Z 31005KT M02/M04 A302 RMK A01 T10231043  RH  086%=      5-min Rain = 0
KBY1 190909Z 31005KT M02/M04 A302 RMK A01 T10231043  RH  086%=      5-min Rain = 0
KBY1 190910Z 32004KT M02/M04 A302 RMK A01 T10231043  RH  086%=      5-min Rain = 0
KBY1 190911Z 32003KT M02/M04 A302 RMK A01 T10241044  RH  086%=      5-min Rain = 0
KBY1 190912Z 31004KT M03/M05 A302 RMK A01 T10251045  RH  086%=      5-min Rain = 0
KBY1 190913Z 31005KT M03/M05 A3021 RMK A01 T10261045  RH  086%=      5-min Rain = 0
KBY1 190914Z 31005KT M03/M04 A3021 RMK A01 T10261044  RH  087%=      5-min Rain = 0
KBY1 190915Z 30005KT M03/M04 A3021 RMK A01 T10261043  RH  088%=      5-min Rain = 0
KBY1 190916Z 30005KT M03/M04 A3021 RMK A01 T10251042  RH  088%=      5-min Rain = 0
KBY1 190917Z 30006KT M02/M04 A3021 RMK A01 T10241042  RH  088%=      5-min Rain = 0
KBY1 190918Z 31006KT M02/M04 A3021 RMK A01 T10231042  RH  087%=      5-min Rain = 0
KBY1 190919Z 31004KT M02/M04 A3021 RMK A01 T10231042  RH  087%=      5-min Rain = 0
KBY1 190920Z 30004KT M02/M04 A3021 RMK A01 T10231043  RH  086%=      5-min Rain = 0
KBY1 190921Z 30004KT M02/M04 A3021 RMK A01 T10231043  RH  086%=      5-min Rain = 0
KBY1 190922Z 29005KT M02/M04 A3021 RMK A01 T10241044  RH  086%=      5-min Rain = 0
KBY1 190923Z 30005KT M02/M04 A3021 RMK A01 T10241043  RH  086%=      5-min Rain = 0
KBY1 190924Z 30004KT M02/M04 A3021 RMK A01 T10241043  RH  087%=      5-min Rain = 0
KBY1 190925Z 30004KT M02/M04 A3021 RMK A01 T10241043  RH  087%=      5-min Rain = 0
KBY1 190926Z 29004KT M02/M04 A3021 RMK A01 T10241043  RH  087%=      5-min Rain = 0
KBY1 190927Z 29004KT M02/M04 A3021 RMK A01 T10241043  RH  087%=      5-min Rain = 0
KBY1 190928Z 29004KT M02/M04 A3021 RMK A01 T10241043  RH  087%=      5-min Rain = 0
KBY1 190929Z 29004KT M02/M04 A3021 RMK A01 T10241044  RH  086%=      5-min Rain = 0
KBY1 190930Z 29003KT M02/M04 A3021 RMK A01 T10241044  RH  086%=      5-min Rain = 0
KBY1 190931Z 30003KT M02/M04 A3021 RMK A01 T10241044  RH  086%=      5-min Rain = 0
KBY1 190932Z 30004KT M02/M04 A3021 RMK A01 T10241044  RH  086%=      5-min Rain = 0
KBY1 190933Z 30004KT M03/M04 A3021 RMK A01 T10251044  RH  087%=      5-min Rain = 0
KBY1 190934Z 29004KT M03/M04 A3021 RMK A01 T10251044  RH  086%=      5-min Rain = 0
KBY1 190935Z 30005KT M03/M05 A3021 RMK A01 T10251045  RH  086%=      5-min Rain = 0
KBY1 190936Z 30005KT M03/M05 A3021 RMK A01 T10251045  RH  087%=      5-min Rain = 0
KBY1 190937Z 30005KT M03/M05 A3022 RMK A01 T10261045  RH  087%=      5-min Rain = 0
KBY1 190938Z 31005KT M03/M05 A3022 RMK A01 T10261045  RH  087%=      5-min Rain = 0
KBY1 190939Z 31004KT M03/M05 A3022 RMK A01 T10261045  RH  087%=      5-min Rain = 0
KBY1 190940Z 31005KT M03/M05 A3022 RMK A01 T10261045  RH  087%=      5-min Rain = 0
KBY1 190941Z 30004KT M03/M04 A3022 RMK A01 T10261044  RH  087%=      5-min Rain = 0
KBY1 190942Z 31004KT M03/M05 A3022 RMK A01 T10261045  RH  087%=      5-min Rain = 0
KBY1 190943Z 31005KT M03/M05 A3022 RMK A01 T10261045  RH  087%=      5-min Rain = 0
KBY1 190944Z 31004KT M03/M05 A3022 RMK A01 T10261045  RH  087%=      5-min Rain = 0
KBY1 190945Z 31004KT M03/M05 A3022 RMK A01 T10261045  RH  087%=      5-min Rain = 0
KBY1 190946Z 31005KT M03/M05 A3022 RMK A01 T10261045  RH  087%=      5-min Rain = 0
KBY1 190947Z 31005KT M03/M05 A3022 RMK A01 T10261045  RH  087%=      5-min Rain = 0
KBY1 190948Z 31005KT M03/M05 A3022 RMK A01 T10261045  RH  087%=      5-min Rain = 0
KBY1 190949Z 31004KT M03/M05 A3022 RMK A01 T10261045  RH  087%=      5-min Rain = 0
KBY1 190950Z 31004KT M03/M05 A3022 RMK A01 T10261046  RH  087%=      5-min Rain = 0
KBY1 190951Z 31004KT M03/M05 A3022 RMK A01 T10271046  RH  087%=      5-min Rain = 0
KBY1 190952Z 31004KT M03/M05 A3022 RMK A01 T10271046  RH  087%=      5-min Rain = 0
KBY1 190953Z 31005KT M03/M05 A3022 RMK A01 T10271046  RH  087%=      5-min Rain = 0
KBY1 190954Z 30005KT M03/M05 A3022 RMK A01 T10271045  RH  087%=      5-min Rain = 0
KBY1 190955Z 29005KT M03/M05 A3021 RMK A01 T10271045  RH  087%=      5-min Rain = 0
KBY1 190956Z 30005KT M03/M05 A3022 RMK A01 T10261045  RH  087%=      5-min Rain = 0
KBY1 190957Z 30005KT M03/M05 A3022 RMK A01 T10261045  RH  087%=      5-min Rain = 0
KBY1 190958Z 30005KT M03/M05 A3022 RMK A01 T10261045  RH  087%=      5-min Rain = 0
KBY1 190959Z 30005KT M03/M05 A3022 RMK A01 T10261045  RH  087%=      5-min Rain = 0
KBY1 191000Z 30005KT M03/M05 A3022 RMK A01 T10261045  RH  087%=      5-min Rain = 0
KBY1 191001Z 30005KT M03/M05 A3022 RMK A01 T10261045  RH  086%=      5-min Rain = 0
KBY1 191002Z 30005KT M03/M05 A3022 RMK A01 T10251045  RH  086%=      5-min Rain = 0
KBY1 191003Z 30004KT M03/M05 A3022 RMK A01 T10251045  RH  086%=      5-min Rain = 0
KBY1 191004Z 30005KT M03/M05 A3022 RMK A01 T10251045  RH  086%=      5-min Rain = 0
KBY1 191005Z 30005KT M03/M05 A3022 RMK A01 T10251045  RH  086%=      5-min Rain = 0
KBY1 191006Z 29004KT M03/M05 A3022 RMK A01 T10251045  RH  086%=      5-min Rain = 0
KBY1 191007Z 30005KT M03/M05 A3022 RMK A01 T10251045  RH  086%=      5-min Rain = 0
KBY1 191008Z 30004KT M03/M05 A3022 RMK A01 T10251045  RH  086%=      5-min Rain = 0
KBY1 191009Z 30004KT M03/M05 A3022 RMK A01 T10251045  RH  086%=      5-min Rain = 0
KBY1 191010Z 30004KT M03/M05 A3022 RMK A01 T10251045  RH  086%=      5-min Rain = 0
KBY1 191011Z 30004KT M03/M05 A3022 RMK A01 T10251045  RH  086%=      5-min Rain = 0
KBY1 191012Z 30004KT M03/M05 A3022 RMK A01 T10261045  RH  086%=      5-min Rain = 0
KBY1 191013Z 30004KT M03/M05 A3022 RMK A01 T10261046  RH  086%=      5-min Rain = 0
KBY1 191014Z 30004KT M03/M05 A3022 RMK A01 T10261046  RH  087%=      5-min Rain = 0
KBY1 191015Z 30004KT M03/M05 A3022 RMK A01 T10271046  RH  087%=      5-min Rain = 0
KBY1 191016Z 30004KT M03/M05 A3023 RMK A01 T10261046  RH  087%=      5-min Rain = 0
KBY1 191017Z 31003KT M03/M05 A3023 RMK A01 T10271046  RH  087%=      5-min Rain = 0
KBY1 191018Z 31003KT M03/M05 A3023 RMK A01 T10271046  RH  087%=      5-min Rain = 0
KBY1 191019Z 31003KT M03/M05 A3022 RMK A01 T10271046  RH  087%=      5-min Rain = 0
KBY1 191020Z 30003KT M03/M05 A3023 RMK A01 T10281047  RH  087%=      5-min Rain = 0
KBY1 191021Z 30003KT M03/M05 A3023 RMK A01 T10281047  RH  087%=      5-min Rain = 0
KBY1 191022Z 31003KT M03/M05 A3023 RMK A01 T10291047  RH  087%=      5-min Rain = 0
KBY1 191023Z 31004KT M03/M05 A3023 RMK A01 T10291047  RH  087%=      5-min Rain = 0
KBY1 191024Z 31005KT M03/M05 A3023 RMK A01 T10291047  RH  087%=      5-min Rain = 0
KBY1 191025Z 31004KT M03/M05 A3023 RMK A01 T10291047  RH  087%=      5-min Rain = 0
KBY1 191026Z 31004KT M03/M05 A3023 RMK A01 T10281046  RH  087%=      5-min Rain = 0
KBY1 191027Z 30003KT M03/M05 A3023 RMK A01 T10291047  RH  087%=      5-min Rain = 0
KBY1 191028Z 30004KT M03/M05 A3023 RMK A01 T10281047  RH  087%=      5-min Rain = 0
KBY1 191029Z 30003KT M03/M05 A3023 RMK A01 T10281047  RH  087%=      5-min Rain = 0
KBY1 191030Z 31003KT M03/M05 A3023 RMK A01 T10281047  RH  087%=      5-min Rain = 0
KBY1 191031Z 31003KT M03/M05 A3023 RMK A01 T10291047  RH  087%=      5-min Rain = 0
KBY1 191032Z 31003KT M03/M05 A3023 RMK A01 T10291047  RH  087%=      5-min Rain = 0
KBY1 191033Z 32002KT M03/M05 A3023 RMK A01 T10291048  RH  087%=      5-min Rain = 0
KBY1 191034Z 31002KT M03/M05 A3023 RMK A01 T10301049  RH  087%=      5-min Rain = 0
KBY1 191035Z 32002KT M03/M05 A3023 RMK A01 T10301049  RH  087%=      5-min Rain = 0
KBY1 191036Z 31003KT M03/M05 A3023 RMK A01 T10311049  RH  087%=      5-min Rain = 0
KBY1 191037Z 31004KT M03/M05 A3023 RMK A01 T10311049  RH  087%=      5-min Rain = 0
KBY1 191038Z 32004KT M03/M05 A3023 RMK A01 T10311049  RH  087%=      5-min Rain = 0
KBY1 191039Z 32003KT M03/M05 A3023 RMK A01 T10311049  RH  087%=      5-min Rain = 0
KBY1 191040Z 32003KT M03/M05 A3023 RMK A01 T10311049  RH  087%=      5-min Rain = 0
KBY1 191041Z 32002KT M03/M05 A3023 RMK A01 T10311049  RH  087%=      5-min Rain = 0
KBY1 191042Z 32003KT M03/M05 A3023 RMK A01 T10311049  RH  087%=      5-min Rain = 0
KBY1 191043Z 32003KT M03/M05 A3023 RMK A01 T10311049  RH  087%=      5-min Rain = 0
KBY1 191044Z 33002KT M03/M05 A3023 RMK A01 T10311049  RH  088%=      5-min Rain = 0
KBY1 191045Z 33002KT M03/M05 A3023 RMK A01 T10311049  RH  088%=      5-min Rain = 0
KBY1 191046Z 33002KT M03/M05 A3023 RMK A01 T10311048  RH  088%=      5-min Rain = 0
KBY1 191047Z 33002KT M03/M05 A3023 RMK A01 T10311048  RH  088%=      5-min Rain = 0
KBY1 191048Z 33002KT M03/M05 A3023 RMK A01 T10311048  RH  088%=      5-min Rain = 0
KBY1 191049Z 33002KT M03/M05 A3023 RMK A01 T10311048  RH  088%=      5-min Rain = 0
KBY1 191050Z 32002KT M03/M05 A3023 RMK A01 T10311048  RH  088%=      5-min Rain = 0
KBY1 191051Z 32002KT M03/M05 A3023 RMK A01 T10311048  RH  088%=      5-min Rain = 0
KBY1 191052Z 33003KT M03/M05 A3023 RMK A01 T10311049  RH  088%=      5-min Rain = 0
KBY1 191053Z 33003KT M03/M05 A3023 RMK A01 T10321049  RH  088%=      5-min Rain = 0
KBY1 191054Z 31002KT M03/M05 A3023 RMK A01 T10321049  RH  088%=      5-min Rain = 0
KBY1 191055Z 33002KT M03/M05 A3023 RMK A01 T10321049  RH  088%=      5-min Rain = 0
KBY1 191056Z 32002KT M03/M05 A3023 RMK A01 T10321049  RH  088%=      5-min Rain = 0
KBY1 191057Z 32002KT M03/M05 A3023 RMK A01 T10321049  RH  088%=      5-min Rain = 0
KBY1 191058Z 31003KT M03/M05 A3023 RMK A01 T10321049  RH  088%=      5-min Rain = 0
KBY1 191059Z 32003KT M03/M05 A3023 RMK A01 T10321049  RH  088%=      5-min Rain = 0
KBY1 191100Z 33003KT M03/M05 A3023 RMK A01 T10321049  RH  088%=      5-min Rain = 0
KBY1 191101Z 33004KT M03/M05 A3023 RMK A01 T10321050  RH  087%=      5-min Rain = 0
KBY1 191102Z 33003KT M03/M05 A3023 RMK A01 T10331051  RH  087%=      5-min Rain = 0
KBY1 191103Z 33003KT M03/M05 A3023 RMK A01 T10331051  RH  087%=      5-min Rain = 0
KBY1 191104Z 32002KT M03/M05 A3023 RMK A01 T10331051  RH  087%=      5-min Rain = 0
KBY1 191105Z 31004KT M03/M05 A3022 RMK A01 T10341052  RH  087%=      5-min Rain = 0
KBY1 191106Z 31004KT M03/M05 A3022 RMK A01 T10341051  RH  088%=      5-min Rain = 0
KBY1 191107Z 32004KT M03/M05 A3022 RMK A01 T10341051  RH  088%=      5-min Rain = 0
KBY1 191108Z 31004KT M03/M05 A3022 RMK A01 T10341051  RH  088%=      5-min Rain = 0
KBY1 191109Z 31004KT M03/M05 A3022 RMK A01 T10341051  RH  088%=      5-min Rain = 0
KBY1 191110Z 30004KT M03/M05 A3022 RMK A01 T10341051  RH  088%=      5-min Rain = 0
KBY1 191111Z 29003KT M03/M05 A3022 RMK A01 T10341052  RH  088%=      5-min Rain = 0
KBY1 191112Z 28003KT M04/M05 A3023 RMK A01 T10351052  RH  088%=      5-min Rain = 0
KBY1 191113Z 29002KT M04/M05 A3023 RMK A01 T10351053  RH  088%=      5-min Rain = 0
KBY1 191114Z 31003KT M04/M05 A3023 RMK A01 T10361053  RH  088%=      5-min Rain = 0
KBY1 191115Z 31002KT M04/M06 A3023 RMK A01 T10371055  RH  088%=      5-min Rain = 0
KBY1 191116Z 30002KT M04/M06 A3023 RMK A01 T10391056  RH  088%=      5-min Rain = 0
KBY1 191117Z 31002KT M04/M06 A3023 RMK A01 T10391056  RH  088%=      5-min Rain = 0
KBY1 191118Z 31002KT M04/M06 A3023 RMK A01 T10401056  RH  088%=      5-min Rain = 0
KBY1 191119Z 32002KT M04/M06 A3023 RMK A01 T10401056  RH  089%=      5-min Rain = 0
KBY1 191120Z 32003KT M04/M06 A3023 RMK A01 T10401056  RH  089%=      5-min Rain = 0
KBY1 191121Z 31003KT M04/M06 A3023 RMK A01 T10411056  RH  089%=      5-min Rain = 0
KBY1 191122Z 32002KT M04/M06 A3023 RMK A01 T10411055  RH  090%=      5-min Rain = 0
KBY1 191123Z 31002KT M04/M06 A3022 RMK A01 T10411055  RH  090%=      5-min Rain = 0
KBY1 191124Z 31001KT M04/M06 A3022 RMK A01 T10411055  RH  090%=      5-min Rain = 0
KBY1 191125Z 31001KT M04/M06 A3022 RMK A01 T10411055  RH  090%=      5-min Rain = 0
KBY1 191126Z 28001KT M04/M06 A3022 RMK A01 T10421055  RH  090%=      5-min Rain = 0
KBY1 191127Z 27002KT M04/M06 A3022 RMK A01 T10431057  RH  090%=      5-min Rain = 0
KBY1 191128Z 28003KT M05/M06 A3023 RMK A01 T10451060  RH  090%=      5-min Rain = 0
KBY1 191129Z 29003KT M05/M06 A3023 RMK A01 T10451059  RH  090%=      5-min Rain = 0
KBY1 191130Z 29003KT M05/M06 A3023 RMK A01 T10461058  RH  091%=      5-min Rain = 0
KBY1 191131Z 30003KT M05/M06 A3023 RMK A01 T10451057  RH  092%=      5-min Rain = 0
KBY1 191132Z 31003KT M05/M06 A3023 RMK A01 T10451056  RH  092%=      5-min Rain = 0
KBY1 191133Z 31003KT M05/M06 A3022 RMK A01 T10461059  RH  091%=      5-min Rain = 0
KBY1 191134Z 31003KT M05/M06 A3022 RMK A01 T10481061  RH  090%=      5-min Rain = 0
KBY1 191135Z 29003KT M05/M06 A3022 RMK A01 T10491063  RH  090%=      5-min Rain = 0
KBY1 191136Z 30003KT M05/M06 A3022 RMK A01 T10491062  RH  091%=      5-min Rain = 0
KBY1 191137Z 31004KT M05/M06 A3022 RMK A01 T10481059  RH  092%=      5-min Rain = 0
KBY1 191138Z 30003KT M05/M06 A3022 RMK A01 T10461056  RH  093%=      5-min Rain = 0
KBY1 191139Z 29003KT M05/M06 A3022 RMK A01 T10461056  RH  093%=      5-min Rain = 0
KBY1 191140Z 30003KT M05/M06 A3022 RMK A01 T10451055  RH  093%=      5-min Rain = 0
KBY1 191141Z 30003KT M04/M05 A3022 RMK A01 T10441053  RH  093%=      5-min Rain = 0
KBY1 191142Z 28003KT M04/M05 A3022 RMK A01 T10431053  RH  093%=      5-min Rain = 0
KBY1 191143Z 29003KT M04/M05 A3022 RMK A01 T10421053  RH  093%=      5-min Rain = 0
KBY1 191144Z 30003KT M04/M05 A3022 RMK A01 T10421052  RH  092%=      5-min Rain = 0
KBY1 191145Z 29003KT M04/M05 A3022 RMK A01 T10411053  RH  092%=      5-min Rain = 0
KBY1 191146Z 29003KT M04/M05 A3022 RMK A01 T10401052  RH  092%=      5-min Rain = 0
KBY1 191147Z 30003KT M04/M05 A3022 RMK A01 T10401053  RH  091%=      5-min Rain = 0
KBY1 191148Z 30003KT M04/M05 A3022 RMK A01 T10411053  RH  091%=      5-min Rain = 0
KBY1 191149Z 30003KT M04/M05 A3022 RMK A01 T10411054  RH  091%=      5-min Rain = 0
KBY1 191150Z 29003KT M04/M06 A3022 RMK A01 T10411055  RH  090%=      5-min Rain = 0
KBY1 191151Z 29002KT M04/M06 A3022 RMK A01 T10431058  RH  089%=      5-min Rain = 0
KBY1 191152Z 29002KT M05/M06 A3022 RMK A01 T10451060  RH  089%=      5-min Rain = 0
KBY1 191153Z 29002KT M05/M06 A3022 RMK A01 T10451060  RH  090%=      5-min Rain = 0
KBY1 191154Z 29003KT M05/M06 A3022 RMK A01 T10451059  RH  090%=      5-min Rain = 0
KBY1 191155Z 29002KT M05/M06 A3022 RMK A01 T10451058  RH  091%=      5-min Rain = 0
KBY1 191156Z 29002KT M05/M06 A3022 RMK A01 T10471060  RH  090%=      5-min Rain = 0
KBY1 191157Z 29002KT M05/M06 A3022 RMK A01 T10471061  RH  090%=      5-min Rain = 0
KBY1 191158Z 29002KT M05/M06 A3022 RMK A01 T10481060  RH  091%=      5-min Rain = 0
KBY1 191159Z 29003KT M05/M06 A3022 RMK A01 T10471060  RH  091%=      5-min Rain = 0
KBY1 191200Z 29003KT M05/M06 A3022 RMK A01 T10481060  RH  091%=      5-min Rain = 0
KBY1 191201Z 29003KT M05/M06 A3022 RMK A01 T10481060  RH  092%=      5-min Rain = 0
KBY1 191202Z 30003KT M05/M06 A3022 RMK A01 T10481059  RH  092%=      5-min Rain = 0
KBY1 191203Z 29003KT M05/M06 A3022 RMK A01 T10471058  RH  092%=      5-min Rain = 0
KBY1 191204Z 29003KT M05/M06 A3022 RMK A01 T10461056  RH  093%=      5-min Rain = 0
KBY1 191205Z 27003KT M04/M05 A3022 RMK A01 T10441053  RH  093%=      5-min Rain = 0
KBY1 191206Z 27003KT M04/M05 A3022 RMK A01 T10421051  RH  094%=      5-min Rain = 0
KBY1 191207Z 30002KT M04/M05 A3023 RMK A01 T10411050  RH  093%=      5-min Rain = 0
KBY1 191208Z 31001KT M04/M05 A3023 RMK A01 T10411051  RH  093%=      5-min Rain = 0
KBY1 191209Z 28002KT M04/M06 A3023 RMK A01 T10431055  RH  091%=      5-min Rain = 0
KBY1 191210Z 27002KT M04/M06 A3023 RMK A01 T10441057  RH  091%=      5-min Rain = 0
KBY1 191211Z 25002KT M05/M06 A3023 RMK A01 T10461061  RH  090%=      5-min Rain = 0
KBY1 191212Z 26001KT M05/M07 A3023 RMK A01 T10491065  RH  089%=      5-min Rain = 0
KBY1 191213Z 00000KT M05/M07 A3023 RMK A01 T10501065  RH  089%=      5-min Rain = 0
KBY1 191214Z 32000KT M05/M07 A3023 RMK A01 T10511065  RH  090%=      5-min Rain = 0
KBY1 191215Z 29002KT M05/M07 A3023 RMK A01 T10521066  RH  090%=      5-min Rain = 0
KBY1 191216Z 27002KT M05/M07 A3023 RMK A01 T10521065  RH  091%=      5-min Rain = 0
KBY1 191217Z 27003KT M05/M06 A3023 RMK A01 T10511062  RH  092%=      5-min Rain = 0
KBY1 191218Z 28003KT M05/M06 A3023 RMK A01 T10491059  RH  093%=      5-min Rain = 0
KBY1 191219Z 28003KT M05/M06 A3023 RMK A01 T10461055  RH  094%=      5-min Rain = 0
KBY1 191220Z 28002KT M04/M05 A3023 RMK A01 T10441052  RH  094%=      5-min Rain = 0
KBY1 191221Z 28002KT M04/M05 A3023 RMK A01 T10441052  RH  094%=      5-min Rain = 0
KBY1 191222Z 29003KT M04/M05 A3023 RMK A01 T10431053  RH  093%=      5-min Rain = 0
KBY1 191223Z 28004KT M04/M05 A3023 RMK A01 T10431053  RH  093%=      5-min Rain = 0
KBY1 191224Z 27005KT M04/M05 A3023 RMK A01 T10431053  RH  093%=      5-min Rain = 0
KBY1 191225Z 27005KT M04/M05 A3023 RMK A01 T10431053  RH  093%=      5-min Rain = 0
KBY1 191226Z 28004KT M04/M05 A3023 RMK A01 T10411052  RH  093%=      5-min Rain = 0
KBY1 191227Z 30004KT M04/M05 A3024 RMK A01 T10411052  RH  092%=      5-min Rain = 0
KBY1 191228Z 29004KT M04/M05 A3024 RMK A01 T10421053  RH  092%=      5-min Rain = 0
KBY1 191229Z 29004KT M04/M06 A3024 RMK A01 T10421055  RH  091%=      5-min Rain = 0
KBY1 191230Z 28004KT M04/M05 A3024 RMK A01 T10421054  RH  092%=      5-min Rain = 0
KBY1 191231Z 29004KT M04/M05 A3024 RMK A01 T10411052  RH  092%=      5-min Rain = 0
KBY1 191232Z 29004KT M04/M05 A3024 RMK A01 T10401051  RH  092%=      5-min Rain = 0
KBY1 191233Z 29004KT M04/M05 A3024 RMK A01 T10391051  RH  092%=      5-min Rain = 0
KBY1 191234Z 29003KT M04/M05 A3024 RMK A01 T10391052  RH  091%=      5-min Rain = 0
KBY1 191235Z 29004KT M04/M05 A3024 RMK A01 T10401052  RH  091%=      5-min Rain = 0
KBY1 191236Z 30003KT M04/M05 A3024 RMK A01 T10391052  RH  091%=      5-min Rain = 0
KBY1 191237Z 30004KT M04/M05 A3024 RMK A01 T10401052  RH  091%=      5-min Rain = 0
KBY1 191238Z 30004KT M04/M05 A3024 RMK A01 T10411054  RH  091%=      5-min Rain = 0
KBY1 191239Z 29004KT M04/M06 A3024 RMK A01 T10411055  RH  090%=      5-min Rain = 0
KBY1 191240Z 29004KT M04/M06 A3024 RMK A01 T10421055  RH  091%=      5-min Rain = 0
KBY1 191241Z 29005KT M04/M06 A3024 RMK A01 T10421055  RH  091%=      5-min Rain = 0
KBY1 191242Z 29005KT M04/M05 A3024 RMK A01 T10421054  RH  091%=      5-min Rain = 0
KBY1 191243Z 29005KT M04/M05 A3024 RMK A01 T10421054  RH  092%=      5-min Rain = 0
KBY1 191244Z 29005KT M04/M05 A3024 RMK A01 T10411053  RH  092%=      5-min Rain = 0
KBY1 191245Z 29005KT M04/M05 A3024 RMK A01 T10411053  RH  091%=      5-min Rain = 0
KBY1 191246Z 29006KT M04/M05 A3024 RMK A01 T10411053  RH  091%=      5-min Rain = 0
KBY1 191247Z 29006KT M04/M05 A3024 RMK A01 T10411053  RH  091%=      5-min Rain = 0
KBY1 191248Z 29006KT M04/M05 A3025 RMK A01 T10401052  RH  092%=      5-min Rain = 0
KBY1 191249Z 29005KT M04/M05 A3025 RMK A01 T10401052  RH  091%=      5-min Rain = 0
KBY1 191250Z 30005KT M04/M05 A3025 RMK A01 T10401052  RH  091%=      5-min Rain = 0
KBY1 191251Z 31004KT M04/M05 A3025 RMK A01 T10411053  RH  091%=      5-min Rain = 0
KBY1 191252Z 31005KT M04/M06 A3025 RMK A01 T10421055  RH  091%=      5-min Rain = 0
KBY1 191253Z 30005KT M04/M06 A3025 RMK A01 T10441057  RH  090%=      5-min Rain = 0
KBY1 191254Z 30005KT M04/M06 A3025 RMK A01 T10441057  RH  091%=      5-min Rain = 0
KBY1 191255Z 30004KT M04/M06 A3025 RMK A01 T10441056  RH  091%=      5-min Rain = 0
KBY1 191256Z 30004KT M04/M06 A3025 RMK A01 T10441056  RH  091%=      5-min Rain = 0
KBY1 191257Z 29004KT M04/M06 A3025 RMK A01 T10441056  RH  092%=      5-min Rain = 0
KBY1 191258Z 29004KT M05/M06 A3025 RMK A01 T10451056  RH  092%=      5-min Rain = 0
KBY1 191259Z 29003KT M05/M06 A3025 RMK A01 T10451056  RH  092%=      5-min Rain = 0
KBY1 191300Z 30004KT M05/M06 A3025 RMK A01 T10451055  RH  092%=      5-min Rain = 0
KBY1 191301Z 31004KT M04/M06 A3025 RMK A01 T10441055  RH  092%=      5-min Rain = 0
KBY1 191302Z 31004KT M05/M06 A3025 RMK A01 T10461058  RH  092%=      5-min Rain = 0
KBY1 191303Z 31004KT M05/M06 A3025 RMK A01 T10481060  RH  091%=      5-min Rain = 0
KBY1 191304Z 31005KT M05/M06 A3025 RMK A01 T10491061  RH  091%=      5-min Rain = 0
KBY1 191305Z 30005KT M05/M06 A3025 RMK A01 T10501062  RH  091%=      5-min Rain = 0
KBY1 191306Z 30005KT M05/M06 A3025 RMK A01 T10501062  RH  092%=      5-min Rain = 0
KBY1 191307Z 29005KT M05/M06 A3025 RMK A01 T10491059  RH  093%=      5-min Rain = 0
KBY1 191308Z 29004KT M05/M06 A3025 RMK A01 T10471056  RH  093%=      5-min Rain = 0
KBY1 191309Z 29004KT M05/M05 A3025 RMK A01 T10451054  RH  094%=      5-min Rain = 0
KBY1 191310Z 29004KT M04/M05 A3025 RMK A01 T10441053  RH  094%=      5-min Rain = 0
KBY1 191311Z 30004KT M04/M05 A3025 RMK A01 T10431052  RH  093%=      5-min Rain = 0
KBY1 191312Z 30004KT M04/M05 A3025 RMK A01 T10431053  RH  093%=      5-min Rain = 0
KBY1 191313Z 30004KT M04/M05 A3025 RMK A01 T10431054  RH  092%=      5-min Rain = 0
KBY1 191314Z 29004KT M04/M05 A3025 RMK A01 T10431054  RH  092%=      5-min Rain = 0
KBY1 191315Z 30003KT M04/M05 A3025 RMK A01 T10431054  RH  092%=      5-min Rain = 0
KBY1 191316Z 31003KT M04/M05 A3025 RMK A01 T10431054  RH  092%=      5-min Rain = 0
KBY1 191317Z 32003KT M04/M06 A3025 RMK A01 T10441055  RH  091%=      5-min Rain = 0
KBY1 191318Z 32002KT M05/M06 A3025 RMK A01 T10451057  RH  091%=      5-min Rain = 0
KBY1 191319Z 31000KT M05/M06 A3025 RMK A01 T10471061  RH  090%=      5-min Rain = 0
KBY1 191320Z 00000KT M05/M07 A3025 RMK A01 T10511066  RH  089%=      5-min Rain = 0
KBY1 191321Z 00000KT M05/M07 A3026 RMK A01 T10531068  RH  089%=      5-min Rain = 0
KBY1 191322Z 00000KT M06/M07 A3026 RMK A01 T10551070  RH  090%=      5-min Rain = 0
KBY1 191323Z 00000KT M06/M07 A3026 RMK A01 T10561070  RH  090%=      5-min Rain = 0
KBY1 191324Z 00000KT M06/M07 A3026 RMK A01 T10571070  RH  090%=      5-min Rain = 0
KBY1 191325Z 30000KT M06/M07 A3026 RMK A01 T10571070  RH  091%=      5-min Rain = 0
KBY1 191326Z 31001KT M06/M07 A3026 RMK A01 T10581070  RH  091%=      5-min Rain = 0
KBY1 191327Z 33002KT M06/M07 A3026 RMK A01 T10581070  RH  091%=      5-min Rain = 0
KBY1 191328Z 31002KT M06/M07 A3026 RMK A01 T10581070  RH  091%=      5-min Rain = 0
KBY1 191329Z 30002KT M06/M07 A3026 RMK A01 T10591070  RH  092%=      5-min Rain = 0
KBY1 191330Z 31003KT M06/M07 A3026 RMK A01 T10591069  RH  092%=      5-min Rain = 0
KBY1 191331Z 32002KT M06/M07 A3026 RMK A01 T10591069  RH  093%=      5-min Rain = 0
KBY1 191332Z 32001KT M06/M07 A3026 RMK A01 T10591068  RH  093%=      5-min Rain = 0
KBY1 191333Z 32002KT M06/M07 A3026 RMK A01 T10581067  RH  094%=      5-min Rain = 0
KBY1 191334Z 31002KT M06/M07 A3026 RMK A01 T10571066  RH  094%=      5-min Rain = 0
KBY1 191335Z 29002KT M06/M07 A3027 RMK A01 T10571065  RH  094%=      5-min Rain = 0
KBY1 191336Z 28001KT M06/M06 A3026 RMK A01 T10561063  RH  095%=      5-min Rain = 0
KBY1 191337Z 26001KT M06/M06 A3026 RMK A01 T10561063  RH  095%=      5-min Rain = 0
KBY1 191338Z 28001KT M06/M06 A3027 RMK A01 T10561063  RH  095%=      5-min Rain = 0
KBY1 191339Z 29001KT M06/M06 A3027 RMK A01 T10561063  RH  094%=      5-min Rain = 0
KBY1 191340Z 31000KT M06/M06 A3027 RMK A01 T10571064  RH  094%=      5-min Rain = 0
KBY1 191341Z 29000KT M06/M07 A3027 RMK A01 T10571065  RH  094%=      5-min Rain = 0
KBY1 191342Z 08000KT M06/M07 A3027 RMK A01 T10571065  RH  094%=      5-min Rain = 0
KBY1 191343Z 08002KT M06/M07 A3027 RMK A01 T10571065  RH  094%=      5-min Rain = 0
KBY1 191344Z 07002KT M06/M07 A3028 RMK A01 T10591067  RH  094%=      5-min Rain = 0
KBY1 191345Z 07002KT M06/M07 A3028 RMK A01 T10611070  RH  093%=      5-min Rain = 0
KBY1 191346Z 05001KT M06/M07 A3028 RMK A01 T10631073  RH  093%=      5-min Rain = 0
KBY1 191347Z 02002KT M06/M07 A3028 RMK A01 T10641074  RH  092%=      5-min Rain = 0
KBY1 191348Z 02001KT M06/M07 A3028 RMK A01 T10641074  RH  093%=      5-min Rain = 0
KBY1 191349Z 24001KT M06/M07 A3028 RMK A01 T10621072  RH  093%=      5-min Rain = 0
KBY1 191350Z 25002KT M06/M07 A3028 RMK A01 T10601069  RH  094%=      5-min Rain = 0
KBY1 191351Z 24003KT M06/M07 A3028 RMK A01 T10611070  RH  094%=      5-min Rain = 0
KBY1 191352Z 24003KT M06/M07 A3028 RMK A01 T10631072  RH  093%=      5-min Rain = 0
KBY1 191353Z 26002KT M06/M07 A3028 RMK A01 T10631072  RH  093%=      5-min Rain = 0
KBY1 191354Z 32001KT M06/M07 A3028 RMK A01 T10631072  RH  094%=      5-min Rain = 0
KBY1 191355Z 35002KT M06/M07 A3028 RMK A01 T10611069  RH  094%=      5-min Rain = 0
KBY1 191356Z 34002KT M06/M07 A3028 RMK A01 T10601067  RH  095%=      5-min Rain = 0
KBY1 191357Z 32002KT M06/M07 A3028 RMK A01 T10591066  RH  095%=      5-min Rain = 0
KBY1 191358Z 29001KT M06/M07 A3028 RMK A01 T10581066  RH  095%=      5-min Rain = 0
KBY1 191359Z 31003KT M06/M07 A3028 RMK A01 T10591066  RH  095%=      5-min Rain = 0
KBY1 191400Z 32003KT M06/M07 A3029 RMK A01 T10601068  RH  094%=      5-min Rain = 0
KBY1 191401Z 32004KT M06/M07 A3029 RMK A01 T10591067  RH  094%=      5-min Rain = 0
KBY1 191402Z 31006KT M05/M06 A3029 RMK A01 T10531059  RH  096%=      5-min Rain = 0
KBY1 191403Z 29007KT M05/M05 A3029 RMK A01 T10471052  RH  097%=      5-min Rain = 0
KBY1 191404Z 27005KT M04/M04 A3029 RMK A01 T10411044  RH  097%=      5-min Rain = 0
KBY1 191405Z 28004KT M04/M04 A3029 RMK A01 T10361040  RH  097%=      5-min Rain = 0
KBY1 191406Z 28004KT M03/M04 A3029 RMK A01 T10321038  RH  095%=      5-min Rain = 0
KBY1 191407Z 32004KT M03/M04 A3029 RMK A01 T10291039  RH  093%=      5-min Rain = 0
KBY1 191408Z 36006KT M03/M04 A3029 RMK A01 T10281041  RH  091%=      5-min Rain = 0
KBY1 191409Z 33005KT M03/M04 A3029 RMK A01 T10281044  RH  089%=      5-min Rain = 0
KBY1 191410Z 29006KT M03/M05 A3029 RMK A01 T10291046  RH  088%=      5-min Rain = 0
KBY1 191411Z 27006KT M03/M05 A3029 RMK A01 T10281045  RH  088%=      5-min Rain = 0
KBY1 191412Z 27007KT M03/M04 A3029 RMK A01 T10251042  RH  088%=      5-min Rain = 0
KBY1 191413Z 30005KT M02/M04 A3029 RMK A01 T10231043  RH  086%=      5-min Rain = 0
KBY1 191414Z 01004KT M02/M04 A303 RMK A01 T10221043  RH  085%=      5-min Rain = 0
KBY1 191415Z 36005KT M02/M04 A303 RMK A01 T10221044  RH  085%=      5-min Rain = 0
KBY1 191416Z 34004KT M02/M05 A303 RMK A01 T10231046  RH  085%=      5-min Rain = 0
KBY1 191417Z 31004KT M03/M05 A303 RMK A01 T10251047  RH  085%=      5-min Rain = 0
KBY1 191418Z 30005KT M03/M05 A303 RMK A01 T10251047  RH  085%=      5-min Rain = 0
KBY1 191419Z 29005KT M03/M05 A303 RMK A01 T10251046  RH  086%=      5-min Rain = 0
KBY1 191420Z 28005KT M02/M05 A303 RMK A01 T10241045  RH  086%=      5-min Rain = 0
KBY1 191421Z 28006KT M02/M04 A3029 RMK A01 T10231044  RH  086%=      5-min Rain = 0
KBY1 191422Z 27006KT M02/M04 A303 RMK A01 T10221044  RH  085%=      5-min Rain = 0
KBY1 191423Z 27006KT M02/M05 A303 RMK A01 T10221045  RH  084%=      5-min Rain = 0
KBY1 191424Z 28006KT M02/M05 A303 RMK A01 T10221046  RH  084%=      5-min Rain = 0
KBY1 191425Z 27006KT M02/M05 A303 RMK A01 T10221045  RH  084%=      5-min Rain = 0
KBY1 191426Z 27006KT M02/M05 A303 RMK A01 T10211045  RH  084%=      5-min Rain = 0
KBY1 191427Z 27006KT M02/M05 A303 RMK A01 T10211045  RH  084%=      5-min Rain = 0
KBY1 191428Z 27006KT M02/M04 A303 RMK A01 T10211044  RH  084%=      5-min Rain = 0
KBY1 191429Z 28006KT M02/M04 A303 RMK A01 T10201044  RH  084%=      5-min Rain = 0
KBY1 191430Z 29005KT M02/M04 A303 RMK A01 T10201044  RH  084%=      5-min Rain = 0
KBY1 191431Z 30005KT M02/M04 A303 RMK A01 T10191043  RH  084%=      5-min Rain = 0
KBY1 191432Z 30005KT M02/M04 A303 RMK A01 T10181042  RH  084%=      5-min Rain = 0
KBY1 191433Z 29005KT M02/M04 A303 RMK A01 T10181042  RH  084%=      5-min Rain = 0
KBY1 191434Z 29004KT M02/M04 A303 RMK A01 T10171042  RH  083%=      5-min Rain = 0
KBY1 191435Z 29005KT M02/M04 A303 RMK A01 T10161041  RH  083%=      5-min Rain = 0
KBY1 191436Z 29006KT M02/M04 A303 RMK A01 T10161041  RH  083%=      5-min Rain = 0
KBY1 191437Z 28004KT M02/M04 A303 RMK A01 T10151041  RH  082%=      5-min Rain = 0
KBY1 191438Z 28005KT M01/M04 A303 RMK A01 T10141041  RH  082%=      5-min Rain = 0
KBY1 191439Z 28004KT M01/M04 A303 RMK A01 T10141040  RH  082%=      5-min Rain = 0
KBY1 191440Z 29004KT M01/M04 A303 RMK A01 T10131039  RH  083%=      5-min Rain = 0
KBY1 191441Z 30004KT M01/M04 A303 RMK A01 T10131039  RH  082%=      5-min Rain = 0
KBY1 191442Z 30004KT M01/M04 A303 RMK A01 T10121039  RH  082%=      5-min Rain = 0
KBY1 191443Z 29004KT M01/M04 A303 RMK A01 T10121038  RH  082%=      5-min Rain = 0
KBY1 191444Z 28004KT M01/M04 A303 RMK A01 T10121039  RH  082%=      5-min Rain = 0
KBY1 191445Z 27004KT M01/M04 A303 RMK A01 T10121039  RH  082%=      5-min Rain = 0
KBY1 191446Z 31004KT M01/M04 A303 RMK A01 T10121039  RH  082%=      5-min Rain = 0
KBY1 191447Z 32003KT M01/M04 A3031 RMK A01 T10121039  RH  082%=      5-min Rain = 0
KBY1 191448Z 30004KT M01/M04 A3031 RMK A01 T10111037  RH  082%=      5-min Rain = 0
KBY1 191449Z 29004KT M01/M04 A3031 RMK A01 T10111037  RH  082%=      5-min Rain = 0
KBY1 191450Z 29005KT M01/M04 A303 RMK A01 T10111038  RH  082%=      5-min Rain = 0
KBY1 191451Z 29004KT M01/M04 A3031 RMK A01 T10111038  RH  082%=      5-min Rain = 0
KBY1 191452Z 28005KT M01/M04 A3031 RMK A01 T10111037  RH  082%=      5-min Rain = 0
KBY1 191453Z 28004KT M01/M04 A3031 RMK A01 T10101036  RH  083%=      5-min Rain = 0
KBY1 191454Z 29004KT M01/M04 A3031 RMK A01 T10101037  RH  082%=      5-min Rain = 0
KBY1 191455Z 29005KT M01/M04 A3031 RMK A01 T10091037  RH  082%=      5-min Rain = 0
KBY1 191456Z 29006KT M01/M04 A3031 RMK A01 T10091037  RH  081%=      5-min Rain = 0
KBY1 191457Z 30004KT M01/M04 A3031 RMK A01 T10081036  RH  081%=      5-min Rain = 0
KBY1 191458Z 30004KT M01/M04 A3031 RMK A01 T10071035  RH  082%=      5-min Rain = 0
KBY1 191459Z 30003KT M01/M03 A3031 RMK A01 T10071034  RH  082%=      5-min Rain = 0
KBY1 191500Z 30004KT M01/M03 A3031 RMK A01 T10071034  RH  082%=      5-min Rain = 0
KBY1 191501Z 30004KT M01/M03 A3031 RMK A01 T10061033  RH  082%=      5-min Rain = 0
KBY1 191502Z 30003KT M01/M03 A3031 RMK A01 T10061034  RH  082%=      5-min Rain = 0
KBY1 191503Z 30002KT M01/M04 A3031 RMK A01 T10061035  RH  081%=      5-min Rain = 0
KBY1 191504Z 31002KT M01/M03 A3031 RMK A01 T10061033  RH  082%=      5-min Rain = 0
KBY1 191505Z 29003KT M01/M03 A3031 RMK A01 T10051032  RH  082%=      5-min Rain = 0
KBY1 191506Z 30002KT M01/M03 A3031 RMK A01 T10051031  RH  082%=      5-min Rain = 0
KBY1 191507Z 30002KT M00/M03 A3031 RMK A01 T10041030  RH  082%=      5-min Rain = 0
KBY1 191508Z 30003KT M00/M03 A3031 RMK A01 T10031030  RH  082%=      5-min Rain = 0
KBY1 191509Z 30003KT M00/M03 A3031 RMK A01 T10031031  RH  081%=      5-min Rain = 0
KBY1 191510Z 28003KT M00/M03 A3031 RMK A01 T10021030  RH  081%=      5-min Rain = 0
KBY1 191511Z 30002KT M00/M03 A3031 RMK A01 T10011029  RH  081%=      5-min Rain = 0
KBY1 191512Z 29003KT 00/03 A3031 RMK A01 T00000-28  RH  081%=      5-min Rain = 0
KBY1 191513Z 30003KT 00/M03 A3031 RMK A01 T00011029  RH  080%=      5-min Rain = 0
KBY1 191514Z 30002KT 00/M03 A3032 RMK A01 T00011029  RH  080%=      5-min Rain = 0
KBY1 191515Z 32001KT 00/M03 A3032 RMK A01 T00021030  RH  079%=      5-min Rain = 0
KBY1 191516Z 31003KT 00/M03 A3032 RMK A01 T00031028  RH  080%=      5-min Rain = 0
KBY1 191517Z 31003KT 00/M03 A3032 RMK A01 T00031030  RH  078%=      5-min Rain = 0
KBY1 191518Z 31003KT 00/M03 A3032 RMK A01 T00041031  RH  078%=      5-min Rain = 0
KBY1 191519Z 30003KT 00/M03 A3032 RMK A01 T00031032  RH  078%=      5-min Rain = 0
KBY1 191520Z 31003KT 00/M03 A3032 RMK A01 T00031031  RH  078%=      5-min Rain = 0
KBY1 191521Z 31003KT 00/M03 A3032 RMK A01 T00031031  RH  078%=      5-min Rain = 0
KBY1 191522Z 32002KT 00/M03 A3032 RMK A01 T00031030  RH  079%=      5-min Rain = 0
KBY1 191523Z 33002KT 00/M03 A3032 RMK A01 T00041026  RH  080%=      5-min Rain = 0
KBY1 191524Z 33002KT 01/M03 A3032 RMK A01 T00051026  RH  079%=      5-min Rain = 0
KBY1 191525Z 34003KT 01/M03 A3032 RMK A01 T00051027  RH  079%=      5-min Rain = 0
KBY1 191526Z 34004KT 01/M03 A3032 RMK A01 T00051026  RH  079%=      5-min Rain = 0
KBY1 191527Z 33003KT 01/M03 A3032 RMK A01 T00061028  RH  078%=      5-min Rain = 0
KBY1 191528Z 34003KT 01/M03 A3032 RMK A01 T00061027  RH  079%=      5-min Rain = 0
KBY1 191529Z 34003KT 01/M03 A3032 RMK A01 T00071026  RH  079%=      5-min Rain = 0
KBY1 191530Z 33004KT 01/M03 A3032 RMK A01 T00081026  RH  078%=      5-min Rain = 0
KBY1 191531Z 34003KT 01/M03 A3032 RMK A01 T00091026  RH  077%=      5-min Rain = 0
KBY1 191532Z 33002KT 01/M03 A3032 RMK A01 T00101026  RH  077%=      5-min Rain = 0
KBY1 191533Z 32003KT 01/M03 A3032 RMK A01 T00111025  RH  076%=      5-min Rain = 0
KBY1 191534Z 31003KT 01/M03 A3032 RMK A01 T00121027  RH  076%=      5-min Rain = 0
KBY1 191535Z 31003KT 01/M03 A3032 RMK A01 T00121026  RH  076%=      5-min Rain = 0
KBY1 191536Z 32004KT 01/M02 A3032 RMK A01 T00141024  RH  076%=      5-min Rain = 0
KBY1 191537Z 33004KT 01/M03 A3032 RMK A01 T00141027  RH  074%=      5-min Rain = 0
KBY1 191538Z 33003KT 01/M03 A3032 RMK A01 T00141027  RH  074%=      5-min Rain = 0
KBY1 191539Z 33003KT 02/M03 A3032 RMK A01 T00151026  RH  074%=      5-min Rain = 0
KBY1 191540Z 32004KT 02/M03 A3032 RMK A01 T00151027  RH  073%=      5-min Rain = 0
KBY1 191541Z 33004KT 02/M03 A3032 RMK A01 T00151028  RH  073%=      5-min Rain = 0
KBY1 191542Z 33004KT 02/M03 A3032 RMK A01 T00151028  RH  073%=      5-min Rain = 0
KBY1 191543Z 34003KT 02/M03 A3032 RMK A01 T00161028  RH  073%=      5-min Rain = 0
KBY1 191544Z 32004KT 02/M03 A3032 RMK A01 T00161027  RH  073%=      5-min Rain = 0
KBY1 191545Z 33004KT 02/M02 A3032 RMK A01 T00181024  RH  074%=      5-min Rain = 0
KBY1 191546Z 33004KT 02/M03 A3032 RMK A01 T00181026  RH  072%=      5-min Rain = 0
KBY1 191547Z 33004KT 02/M03 A3032 RMK A01 T00191026  RH  072%=      5-min Rain = 0
KBY1 191548Z 34003KT 02/M02 A3033 RMK A01 T00201022  RH  073%=      5-min Rain = 0
KBY1 191549Z 34005KT 02/M02 A3033 RMK A01 T00221024  RH  071%=      5-min Rain = 0
KBY1 191550Z 33005KT 02/M03 A3033 RMK A01 T00221028  RH  070%=      5-min Rain = 0
KBY1 191551Z 33004KT 02/M03 A3033 RMK A01 T00221027  RH  070%=      5-min Rain = 0
KBY1 191552Z 34004KT 02/M03 A3033 RMK A01 T00221027  RH  070%=      5-min Rain = 0
KBY1 191553Z 00004KT 02/M03 A3033 RMK A01 T00231025  RH  070%=      5-min Rain = 0
KBY1 191554Z 02005KT 03/M02 A3033 RMK A01 T00251024  RH  070%=      5-min Rain = 0
KBY1 191555Z 36005KT 03/M03 A3033 RMK A01 T00251027  RH  069%=      5-min Rain = 0
KBY1 191556Z 34005KT 03/M02 A3033 RMK A01 T00261023  RH  070%=      5-min Rain = 0
KBY1 191557Z 35005KT 03/M02 A3033 RMK A01 T00281024  RH  069%=      5-min Rain = 0
KBY1 191558Z 00004KT 03/M03 A3033 RMK A01 T00271027  RH  067%=      5-min Rain = 0
KBY1 191559Z 02005KT 03/M03 A3033 RMK A01 T00271026  RH  068%=      5-min Rain = 0
KBY1 191600Z 02005KT 03/M02 A3033 RMK A01 T00281024  RH  068%=      5-min Rain = 0
KBY1 191601Z 01005KT 03/M03 A3033 RMK A01 T00291025  RH  068%=      5-min Rain = 0
KBY1 191602Z 36006KT 03/M03 A3033 RMK A01 T00291025  RH  068%=      5-min Rain = 0
KBY1 191603Z 36003KT 03/M03 A3033 RMK A01 T00291026  RH  067%=      5-min Rain = 0
KBY1 191604Z 02005KT 03/M03 A3033 RMK A01 T00291027  RH  066%=      5-min Rain = 0
KBY1 191605Z 03007KT 03/M03 A3033 RMK A01 T00291029  RH  066%=      5-min Rain = 0
KBY1 191606Z 02006KT 03/M03 A3033 RMK A01 T00261031  RH  066%=      5-min Rain = 0
KBY1 191607Z 36007KT 03/M03 A3033 RMK A01 T00271028  RH  067%=      5-min Rain = 0
KBY1 191608Z 34008KT 03/M03 A3033 RMK A01 T00281028  RH  066%=      5-min Rain = 0
KBY1 191609Z 35007G12KT 03/M03 A3033 RMK A01 T00301027  RH  066%=      5-min Rain = 0
KBY1 191610Z 00008KT 03/M03 A3033 RMK A01 T00311028  RH  065%=      5-min Rain = 0
KBY1 191611Z 36009KT 03/M03 A3033 RMK A01 T00311031  RH  064%=      5-min Rain = 0
KBY1 191612Z 01007KT 03/M03 A3033 RMK A01 T00301031  RH  065%=      5-min Rain = 0
KBY1 191613Z 34008KT 03/M03 A3033 RMK A01 T00301030  RH  065%=      5-min Rain = 0
KBY1 191614Z 34008KT 03/M03 A3033 RMK A01 T00301031  RH  064%=      5-min Rain = 0
KBY1 191615Z 36008KT 03/M03 A3033 RMK A01 T00301029  RH  065%=      5-min Rain = 0
KBY1 191616Z 36007KT 03/M03 A3033 RMK A01 T00301029  RH  065%=      5-min Rain = 0
KBY1 191617Z 00006KT 03/M03 A3033 RMK A01 T00311029  RH  065%=      5-min Rain = 0
KBY1 191618Z 02007KT 03/M03 A3034 RMK A01 T00311029  RH  065%=      5-min Rain = 0
KBY1 191619Z 02007KT 03/M03 A3034 RMK A01 T00301031  RH  064%=      5-min Rain = 0
KBY1 191620Z 01007KT 03/M03 A3034 RMK A01 T00291030  RH  065%=      5-min Rain = 0
KBY1 191621Z 03009KT 03/M03 A3034 RMK A01 T00291027  RH  066%=      5-min Rain = 0
KBY1 191622Z 04008KT 03/M03 A3034 RMK A01 T00291028  RH  066%=      5-min Rain = 0
KBY1 191623Z 03007KT 03/M03 A3034 RMK A01 T00291027  RH  066%=      5-min Rain = 0
KBY1 191624Z 01006KT 03/M03 A3034 RMK A01 T00301028  RH  066%=      5-min Rain = 0
KBY1 191625Z 02008KT 03/M03 A3034 RMK A01 T00311029  RH  065%=      5-min Rain = 0
KBY1 191626Z 04007KT 03/M03 A3034 RMK A01 T00301027  RH  066%=      5-min Rain = 0
KBY1 191627Z 02009KT 03/M03 A3034 RMK A01 T00321027  RH  066%=      5-min Rain = 0
KBY1 191628Z 00005KT 03/M03 A3034 RMK A01 T00311028  RH  065%=      5-min Rain = 0
KBY1 191629Z 01007KT 03/M03 A3034 RMK A01 T00321029  RH  064%=      5-min Rain = 0
KBY1 191630Z 03007KT 03/M03 A3034 RMK A01 T00321030  RH  064%=      5-min Rain = 0
KBY1 191631Z 04006KT 03/M03 A3034 RMK A01 T00291031  RH  065%=      5-min Rain = 0
KBY1 191632Z 03007KT 03/M03 A3034 RMK A01 T00301027  RH  066%=      5-min Rain = 0
KBY1 191633Z 00007KT 03/M03 A3035 RMK A01 T00311027  RH  066%=      5-min Rain = 0
KBY1 191634Z 01006KT 03/M03 A3035 RMK A01 T00311028  RH  065%=      5-min Rain = 0
KBY1 191635Z 03006KT 03/M03 A3035 RMK A01 T00321028  RH  065%=      5-min Rain = 0
KBY1 191636Z 03009KT 03/M03 A3035 RMK A01 T00321027  RH  065%=      5-min Rain = 0
KBY1 191637Z 03009KT 03/M03 A3035 RMK A01 T00331027  RH  065%=      5-min Rain = 0
KBY1 191638Z 02007KT 03/M03 A3035 RMK A01 T00311032  RH  063%=      5-min Rain = 0
KBY1 191639Z 03007KT 03/M03 A3035 RMK A01 T00281031  RH  065%=      5-min Rain = 0
KBY1 191640Z 02008KT 03/M03 A3035 RMK A01 T00291030  RH  065%=      5-min Rain = 0
KBY1 191641Z 04009KT 03/M03 A3035 RMK A01 T00281030  RH  065%=      5-min Rain = 0
KBY1 191642Z 03007KT 03/M03 A3035 RMK A01 T00301028  RH  066%=      5-min Rain = 0
KBY1 191643Z 04008KT 03/M03 A3035 RMK A01 T00311027  RH  066%=      5-min Rain = 0
KBY1 191644Z 04007KT 03/M03 A3035 RMK A01 T00301031  RH  065%=      5-min Rain = 0
KBY1 191645Z 03007KT 03/M03 A3035 RMK A01 T00291030  RH  065%=      5-min Rain = 0
KBY1 191646Z 04007KT 03/M03 A3035 RMK A01 T00291029  RH  066%=      5-min Rain = 0
KBY1 191647Z 02007KT 03/M03 A3035 RMK A01 T00291031  RH  065%=      5-min Rain = 0
KBY1 191648Z 35006KT 03/M03 A3035 RMK A01 T00291029  RH  066%=      5-min Rain = 0
KBY1 191649Z 02006KT 03/M03 A3035 RMK A01 T00301030  RH  065%=      5-min Rain = 0
KBY1 191650Z 03006KT 03/M03 A3035 RMK A01 T00291031  RH  065%=      5-min Rain = 0
KBY1 191651Z 03005KT 03/M03 A3035 RMK A01 T00291031  RH  065%=      5-min Rain = 0
KBY1 191652Z 01006KT 03/M03 A3035 RMK A01 T00281031  RH  065%=      5-min Rain = 0
KBY1 191653Z 00008KT 03/M03 A3035 RMK A01 T00291028  RH  066%=      5-min Rain = 0
KBY1 191654Z 01005KT 03/M03 A3035 RMK A01 T00321025  RH  066%=      5-min Rain = 0
KBY1 191655Z 36006KT 03/M03 A3035 RMK A01 T00331026  RH  065%=      5-min Rain = 0
KBY1 191656Z 00007KT 03/M03 A3035 RMK A01 T00341028  RH  064%=      5-min Rain = 0
KBY1 191657Z 01005KT 03/M03 A3035 RMK A01 T00321030  RH  064%=      5-min Rain = 0
KBY1 191658Z 01004KT 03/M03 A3035 RMK A01 T00301032  RH  063%=      5-min Rain = 0
KBY1 191659Z 00004KT 03/M03 A3035 RMK A01 T00291031  RH  064%=      5-min Rain = 0
KBY1 191700Z 01004KT 03/M03 A3035 RMK A01 T00291031  RH  065%=      5-min Rain = 0
KBY1 191701Z 03004KT 03/M03 A3035 RMK A01 T00291029  RH  066%=      5-min Rain = 0
KBY1 191702Z 02006KT 03/M03 A3035 RMK A01 T00311027  RH  066%=      5-min Rain = 0
KBY1 191703Z 00005KT 03/M03 A3035 RMK A01 T00311030  RH  064%=      5-min Rain = 0
KBY1 191704Z 01005KT 03/M03 A3035 RMK A01 T00301031  RH  064%=      5-min Rain = 0
KBY1 191705Z 03006KT 03/M03 A3035 RMK A01 T00301027  RH  066%=      5-min Rain = 0
KBY1 191706Z 02004KT 03/M03 A3035 RMK A01 T00321028  RH  065%=      5-min Rain = 0
KBY1 191707Z 01004KT 03/M03 A3035 RMK A01 T00321030  RH  064%=      5-min Rain = 0
KBY1 191708Z 02005KT 03/M03 A3035 RMK A01 T00321030  RH  064%=      5-min Rain = 0
KBY1 191709Z 02005KT 03/M03 A3035 RMK A01 T00331027  RH  065%=      5-min Rain = 0
KBY1 191710Z 02006KT 03/M03 A3035 RMK A01 T00331029  RH  064%=      5-min Rain = 0
KBY1 191711Z 01007KT 03/M03 A3035 RMK A01 T00331027  RH  064%=      5-min Rain = 0
KBY1 191712Z 01005KT 04/M03 A3035 RMK A01 T00361026  RH  064%=      5-min Rain = 0
KBY1 191713Z 01004KT 04/M03 A3035 RMK A01 T00361028  RH  063%=      5-min Rain = 0
KBY1 191714Z 02005KT 03/M03 A3035 RMK A01 T00341029  RH  063%=      5-min Rain = 0
KBY1 191715Z 00004KT 04/M03 A3035 RMK A01 T00351026  RH  064%=      5-min Rain = 0
KBY1 191716Z 02005KT 04/M03 A3035 RMK A01 T00361026  RH  064%=      5-min Rain = 0
KBY1 191717Z 02005KT 04/M03 A3035 RMK A01 T00371025  RH  064%=      5-min Rain = 0
KBY1 191718Z 01004KT 04/M02 A3035 RMK A01 T00391024  RH  063%=      5-min Rain = 0
KBY1 191719Z 01003KT 04/M03 A3035 RMK A01 T00401027  RH  062%=      5-min Rain = 0
KBY1 191720Z 34004KT 04/M03 A3035 RMK A01 T00391027  RH  062%=      5-min Rain = 0
KBY1 191721Z 02006KT 04/M02 A3035 RMK A01 T00411024  RH  062%=      5-min Rain = 0
KBY1 191722Z 02006KT 04/M03 A3034 RMK A01 T00421025  RH  062%=      5-min Rain = 0
KBY1 191723Z 35005KT 04/M02 A3035 RMK A01 T00431024  RH  061%=      5-min Rain = 0
KBY1 191724Z 35006KT 04/M03 A3035 RMK A01 T00431028  RH  060%=      5-min Rain = 0
KBY1 191725Z 36006KT 04/M03 A3035 RMK A01 T00421028  RH  060%=      5-min Rain = 0
KBY1 191726Z 00005KT 04/M03 A3035 RMK A01 T00401029  RH  060%=      5-min Rain = 0
KBY1 191727Z 36005KT 04/M03 A3035 RMK A01 T00381031  RH  061%=      5-min Rain = 0
KBY1 191728Z 34007KT 04/M03 A3035 RMK A01 T00391028  RH  062%=      5-min Rain = 0
KBY1 191729Z 32004KT 04/M03 A3035 RMK A01 T00401029  RH  061%=      5-min Rain = 0
KBY1 191730Z 32006KT 04/M02 A3035 RMK A01 T00441024  RH  062%=      5-min Rain = 0
KBY1 191731Z 34010KT 05/M02 A3035 RMK A01 T00481021  RH  061%=      5-min Rain = 0
KBY1 191732Z 33009KT 05/M03 A3035 RMK A01 T00481027  RH  058%=      5-min Rain = 0
KBY1 191733Z 34006KT 05/M03 A3035 RMK A01 T00461030  RH  058%=      5-min Rain = 0
KBY1 191734Z 34004KT 04/M03 A3035 RMK A01 T00441029  RH  059%=      5-min Rain = 0
KBY1 191735Z 33006KT 05/M02 A3035 RMK A01 T00461024  RH  060%=      5-min Rain = 0
KBY1 191736Z 34007KT 05/M02 A3035 RMK A01 T00501021  RH  060%=      5-min Rain = 0
KBY1 191737Z 33007KT 05/M02 A3035 RMK A01 T00511023  RH  059%=      5-min Rain = 0
KBY1 191738Z 34007KT 05/M02 A3035 RMK A01 T00521023  RH  058%=      5-min Rain = 0
KBY1 191739Z 35008KT 05/M03 A3035 RMK A01 T00521025  RH  058%=      5-min Rain = 0
KBY1 191740Z 00006KT 05/M03 A3035 RMK A01 T00511026  RH  058%=      5-min Rain = 0
KBY1 191741Z 35006KT 05/M02 A3035 RMK A01 T00511024  RH  058%=      5-min Rain = 0
KBY1 191742Z 35006KT 05/M03 A3035 RMK A01 T00511025  RH  058%=      5-min Rain = 0
KBY1 191743Z 01007KT 05/M02 A3035 RMK A01 T00521024  RH  058%=      5-min Rain = 0
KBY1 191744Z 00008KT 05/M03 A3035 RMK A01 T00521025  RH  057%=      5-min Rain = 0
KBY1 191745Z 35008KT 05/M03 A3035 RMK A01 T00501027  RH  057%=      5-min Rain = 0
KBY1 191746Z 36006KT 05/M03 A3035 RMK A01 T00481028  RH  058%=      5-min Rain = 0
KBY1 191747Z 35005KT 05/M03 A3035 RMK A01 T00471025  RH  059%=      5-min Rain = 0
KBY1 191748Z 34006KT 05/M02 A3035 RMK A01 T00501023  RH  059%=      5-min Rain = 0
KBY1 191749Z 01006KT 05/M02 A3035 RMK A01 T00541021  RH  059%=      5-min Rain = 0
KBY1 191750Z 34006KT 06/M02 A3035 RMK A01 T00561021  RH  058%=      5-min Rain = 0
KBY1 191751Z 35006KT 06/M02 A3035 RMK A01 T00571021  RH  057%=      5-min Rain = 0
KBY1 191752Z 01005G10KT 06/M02 A3035 RMK A01 T00591021  RH  057%=      5-min Rain = 0
KBY1 191753Z 36009KT 06/M02 A3035 RMK A01 T00581024  RH  056%=      5-min Rain = 0
KBY1 191754Z 35007KT 06/M02 A3034 RMK A01 T00561024  RH  056%=      5-min Rain = 0
KBY1 191755Z 34006KT 06/M02 A3034 RMK A01 T00571022  RH  057%=      5-min Rain = 0
KBY1 191756Z 35008KT 06/M02 A3034 RMK A01 T00581023  RH  056%=      5-min Rain = 0
KBY1 191757Z 35008KT 06/M02 A3034 RMK A01 T00581024  RH  056%=      5-min Rain = 0
KBY1 191758Z 34008KT 06/M03 A3034 RMK A01 T00571025  RH  055%=      5-min Rain = 0
KBY1 191759Z 33010KT 06/M03 A3034 RMK A01 T00561025  RH  056%=      5-min Rain = 0
KBY1 191800Z 35009KT 06/M03 A3034 RMK A01 T00551025  RH  056%=      5-min Rain = 0
KBY1 191801Z 35005KT 05/M03 A3034 RMK A01 T00531025  RH  057%=      5-min Rain = 0
KBY1 191802Z 34006KT 06/M02 A3034 RMK A01 T00561020  RH  058%=      5-min Rain = 0
KBY1 191803Z 35006KT 06/M02 A3034 RMK A01 T00581021  RH  057%=      5-min Rain = 0
KBY1 191804Z 01007KT 06/M02 A3034 RMK A01 T00601021  RH  056%=      5-min Rain = 0
KBY1 191805Z 01009KT 06/M03 A3034 RMK A01 T00581025  RH  055%=      5-min Rain = 0
KBY1 191806Z 36008KT 06/M02 A3034 RMK A01 T00561024  RH  056%=      5-min Rain = 0
KBY1 191807Z 01008KT 06/M02 A3034 RMK A01 T00561022  RH  057%=      5-min Rain = 0
KBY1 191808Z 02007KT 06/M02 A3034 RMK A01 T00561023  RH  057%=      5-min Rain = 0
KBY1 191809Z 01006KT 06/M02 A3034 RMK A01 T00581020  RH  057%=      5-min Rain = 0
KBY1 191810Z 35005KT 06/M02 A3033 RMK A01 T00611018  RH  057%=      5-min Rain = 0
KBY1 191811Z 36006KT 06/M02 A3033 RMK A01 T00641017  RH  056%=      5-min Rain = 0
KBY1 191812Z 35007KT 06/M02 A3033 RMK A01 T00641020  RH  055%=      5-min Rain = 0
KBY1 191813Z 01007KT 06/M02 A3033 RMK A01 T00631020  RH  056%=      5-min Rain = 0
KBY1 191814Z 00005KT 06/M02 A3033 RMK A01 T00621021  RH  055%=      5-min Rain = 0
KBY1 191815Z 01007KT 06/M02 A3033 RMK A01 T00601022  RH  056%=      5-min Rain = 0
KBY1 191816Z 00007KT 06/M02 A3033 RMK A01 T00581024  RH  056%=      5-min Rain = 0
KBY1 191817Z 36009KT 06/M02 A3033 RMK A01 T00581020  RH  057%=      5-min Rain = 0
KBY1 191818Z 35008KT 06/M02 A3033 RMK A01 T00621020  RH  056%=      5-min Rain = 0
KBY1 191819Z 00006KT 06/M02 A3033 RMK A01 T00621022  RH  055%=      5-min Rain = 0
KBY1 191820Z 34005KT 06/M02 A3033 RMK A01 T00621020  RH  056%=      5-min Rain = 0
KBY1 191821Z 35009KT 06/M02 A3032 RMK A01 T00621021  RH  055%=      5-min Rain = 0
KBY1 191822Z 34005KT 06/M02 A3032 RMK A01 T00611024  RH  054%=      5-min Rain = 0
KBY1 191823Z 35005KT 06/M02 A3032 RMK A01 T00611022  RH  055%=      5-min Rain = 0
KBY1 191824Z 35010KT 06/M02 A3032 RMK A01 T00641021  RH  054%=      5-min Rain = 0
KBY1 191825Z 35009KT 06/M03 A3032 RMK A01 T00641025  RH  053%=      5-min Rain = 0
KBY1 191826Z 35007KT 06/M02 A3032 RMK A01 T00641023  RH  053%=      5-min Rain = 0
KBY1 191827Z 36007KT 07/M02 A3032 RMK A01 T00661023  RH  053%=      5-min Rain = 0
KBY1 191828Z 34008KT 07/M03 A3032 RMK A01 T00651025  RH  052%=      5-min Rain = 0
KBY1 191829Z 35005KT 06/M03 A3032 RMK A01 T00631026  RH  053%=      5-min Rain = 0
KBY1 191830Z 34005KT 06/M02 A3032 RMK A01 T00621023  RH  054%=      5-min Rain = 0
KBY1 191831Z 34009KT 07/M02 A3032 RMK A01 T00651021  RH  054%=      5-min Rain = 0
KBY1 191832Z 33006KT 07/M02 A3032 RMK A01 T00681023  RH  052%=      5-min Rain = 0
KBY1 191833Z 34008KT 07/M03 A3032 RMK A01 T00661026  RH  052%=      5-min Rain = 0
KBY1 191834Z 34010KT 07/M02 A3032 RMK A01 T00661024  RH  053%=      5-min Rain = 0
KBY1 191835Z 35009KT 07/M03 A3032 RMK A01 T00691025  RH  051%=      5-min Rain = 0
KBY1 191836Z 33011KT 07/M03 A3032 RMK A01 T00681027  RH  051%=      5-min Rain = 0
KBY1 191837Z 33011KT 07/M03 A3032 RMK A01 T00671026  RH  051%=      5-min Rain = 0
KBY1 191838Z 33010KT 07/M03 A3032 RMK A01 T00671026  RH  052%=      5-min Rain = 0
KBY1 191839Z 33008KT 07/M03 A3032 RMK A01 T00661026  RH  052%=      5-min Rain = 0
KBY1 191840Z 33009KT 07/M02 A3032 RMK A01 T00671023  RH  053%=      5-min Rain = 0
KBY1 191841Z 32009KT 07/M02 A3032 RMK A01 T00681024  RH  052%=      5-min Rain = 0
KBY1 191842Z 33006KT 07/M02 A3032 RMK A01 T00681024  RH  052%=      5-min Rain = 0
KBY1 191843Z 33007KT 07/M02 A3032 RMK A01 T00701021  RH  052%=      5-min Rain = 0
KBY1 191844Z 34009KT 07/M02 A3032 RMK A01 T00731020  RH  052%=      5-min Rain = 0
KBY1 191845Z 34007KT 07/M02 A3032 RMK A01 T00741023  RH  050%=      5-min Rain = 0
KBY1 191846Z 33008KT 07/M03 A3032 RMK A01 T00741025  RH  050%=      5-min Rain = 0
KBY1 191847Z 34007KT 07/M03 A3032 RMK A01 T00721025  RH  050%=      5-min Rain = 0
KBY1 191848Z 33009KT 07/M02 A3032 RMK A01 T00731024  RH  050%=      5-min Rain = 0
KBY1 191849Z 33007KT 07/M03 A3032 RMK A01 T00711025  RH  050%=      5-min Rain = 0
KBY1 191850Z 34006KT 07/M02 A3032 RMK A01 T00711024  RH  051%=      5-min Rain = 0
KBY1 191851Z 35010KT 07/M02 A3032 RMK A01 T00711024  RH  051%=      5-min Rain = 0
KBY1 191852Z 36009KT 07/M03 A3032 RMK A01 T00711027  RH  050%=      5-min Rain = 0
KBY1 191853Z 35008KT 07/M03 A3032 RMK A01 T00701027  RH  050%=      5-min Rain = 0
KBY1 191854Z 32008KT 07/M03 A3032 RMK A01 T00711026  RH  050%=      5-min Rain = 0
KBY1 191855Z 33008KT 07/M03 A3032 RMK A01 T00711027  RH  050%=      5-min Rain = 0
KBY1 191856Z 34009KT 07/M03 A3032 RMK A01 T00731025  RH  050%=      5-min Rain = 0
KBY1 191857Z 33009KT 08/M02 A3032 RMK A01 T00751024  RH  049%=      5-min Rain = 0
KBY1 191858Z 32009KT 08/M02 A3032 RMK A01 T00781023  RH  049%=      5-min Rain = 0
KBY1 191859Z 32008KT 08/M03 A3032 RMK A01 T00761027  RH  048%=      5-min Rain = 0
KBY1 191900Z 34010KT 07/M03 A3032 RMK A01 T00741026  RH  049%=      5-min Rain = 0
KBY1 191901Z 35008KT 07/M03 A3032 RMK A01 T00741027  RH  049%=      5-min Rain = 0
KBY1 191902Z 35007KT 07/M03 A3032 RMK A01 T00721028  RH  049%=      5-min Rain = 0
KBY1 191903Z 36007KT 07/M03 A3032 RMK A01 T00701027  RH  050%=      5-min Rain = 0
KBY1 191904Z 36006KT 07/M02 A3031 RMK A01 T00701024  RH  051%=      5-min Rain = 0
KBY1 191905Z 01007KT 08/M02 A3031 RMK A01 T00771018  RH  051%=      5-min Rain = 0
KBY1 191906Z 35006KT 08/M02 A3032 RMK A01 T00801023  RH  048%=      5-min Rain = 0
KBY1 191907Z 35006KT 08/M02 A3031 RMK A01 T00791023  RH  049%=      5-min Rain = 0
KBY1 191908Z 35008KT 08/M02 A3031 RMK A01 T00801024  RH  048%=      5-min Rain = 0
KBY1 191909Z 34009KT 08/M02 A3031 RMK A01 T00801024  RH  048%=      5-min Rain = 0
KBY1 191910Z 34008G13KT 08/M03 A3031 RMK A01 T00791026  RH  047%=      5-min Rain = 0
KBY1 191911Z 35008KT 08/M03 A3031 RMK A01 T00791025  RH  048%=      5-min Rain = 0
KBY1 191912Z 35005KT 08/M02 A3031 RMK A01 T00821023  RH  048%=      5-min Rain = 0
KBY1 191913Z 36005KT 08/M03 A3031 RMK A01 T00831026  RH  046%=      5-min Rain = 0
KBY1 191914Z 34006KT 08/M03 A3031 RMK A01 T00821027  RH  046%=      5-min Rain = 0
KBY1 191915Z 35008KT 08/M02 A3031 RMK A01 T00831024  RH  047%=      5-min Rain = 0
KBY1 191916Z 33008KT 08/M03 A3031 RMK A01 T00841027  RH  045%=      5-min Rain = 0
KBY1 191917Z 34008KT 08/M03 A3031 RMK A01 T00831029  RH  045%=      5-min Rain = 0
KBY1 191918Z 36010KT 08/M03 A3031 RMK A01 T00831029  RH  045%=      5-min Rain = 0
KBY1 191919Z 01010KT 08/M03 A3031 RMK A01 T00821029  RH  045%=      5-min Rain = 0
KBY1 191920Z 01009KT 08/M03 A3031 RMK A01 T00791030  RH  046%=      5-min Rain = 0
KBY1 191921Z 34007KT 08/M03 A3031 RMK A01 T00791028  RH  047%=      5-min Rain = 0
KBY1 191922Z 00005KT 08/M03 A3031 RMK A01 T00801025  RH  047%=      5-min Rain = 0
KBY1 191923Z 33011KT 08/M03 A3031 RMK A01 T00841025  RH  046%=      5-min Rain = 0
KBY1 191924Z 34011KT 08/M03 A3031 RMK A01 T00841029  RH  045%=      5-min Rain = 0
KBY1 191925Z 33007KT 08/M03 A3031 RMK A01 T00821031  RH  045%=      5-min Rain = 0
KBY1 191926Z 36006KT 08/M03 A303 RMK A01 T00811032  RH  045%=      5-min Rain = 0
KBY1 191927Z 00009KT 08/M03 A303 RMK A01 T00811032  RH  045%=      5-min Rain = 0
KBY1 191928Z 36008KT 08/M03 A303 RMK A01 T00811032  RH  045%=      5-min Rain = 0
KBY1 191929Z 00008KT 08/M03 A303 RMK A01 T00801032  RH  045%=      5-min Rain = 0
KBY1 191930Z 36007KT 08/M03 A303 RMK A01 T00811031  RH  045%=      5-min Rain = 0
KBY1 191931Z 36006KT 08/M03 A303 RMK A01 T00821030  RH  045%=      5-min Rain = 0
KBY1 191932Z 34009KT 08/M03 A303 RMK A01 T00831031  RH  044%=      5-min Rain = 0
KBY1 191933Z 00008KT 08/M04 A303 RMK A01 T00841035  RH  043%=      5-min Rain = 0
KBY1 191934Z 00006KT 08/M04 A303 RMK A01 T00821035  RH  044%=      5-min Rain = 0
KBY1 191935Z 02008KT 08/M03 A303 RMK A01 T00831033  RH  044%=      5-min Rain = 0
KBY1 191936Z 02008KT 08/M03 A303 RMK A01 T00831034  RH  044%=      5-min Rain = 0
KBY1 191937Z 02007KT 08/M03 A303 RMK A01 T00821034  RH  044%=      5-min Rain = 0
KBY1 191938Z 00006KT 08/M03 A303 RMK A01 T00811032  RH  045%=      5-min Rain = 0
KBY1 191939Z 36010KT 08/M03 A303 RMK A01 T00811033  RH  044%=      5-min Rain = 0
KBY1 191940Z 35009KT 08/M03 A303 RMK A01 T00821033  RH  044%=      5-min Rain = 0
KBY1 191941Z 33006KT 08/M03 A3029 RMK A01 T00831033  RH  044%=      5-min Rain = 0
KBY1 191942Z 35006KT 08/M03 A3029 RMK A01 T00841032  RH  044%=      5-min Rain = 0
KBY1 191943Z 34006KT 09/M03 A3029 RMK A01 T00871030  RH  044%=      5-min Rain = 0
KBY1 191944Z 00007KT 09/M03 A3029 RMK A01 T00891030  RH  043%=      5-min Rain = 0
KBY1 191945Z 00009KT 09/M04 A3029 RMK A01 T00911035  RH  041%=      5-min Rain = 0
KBY1 191946Z 01008KT 09/M04 A3029 RMK A01 T00861040  RH  041%=      5-min Rain = 0
KBY1 191947Z 01007KT 08/M04 A3029 RMK A01 T00841038  RH  042%=      5-min Rain = 0
KBY1 191948Z 01007KT 08/M04 A3029 RMK A01 T00811039  RH  042%=      5-min Rain = 0
KBY1 191949Z 01011KT 08/M04 A3029 RMK A01 T00791040  RH  043%=      5-min Rain = 0
KBY1 191950Z 01010KT 08/M04 A3029 RMK A01 T00811039  RH  043%=      5-min Rain = 0
KBY1 191951Z 02010KT 08/M03 A3029 RMK A01 T00841034  RH  043%=      5-min Rain = 0
KBY1 191952Z 02010KT 09/M03 A3028 RMK A01 T00861033  RH  043%=      5-min Rain = 0
KBY1 191953Z 36009KT 09/M03 A3028 RMK A01 T00891029  RH  044%=      5-min Rain = 0
KBY1 191954Z 36008KT 09/M03 A3028 RMK A01 T00911029  RH  043%=      5-min Rain = 0
KBY1 191955Z 01007G14KT 09/M03 A3028 RMK A01 T00881032  RH  043%=      5-min Rain = 0
KBY1 191956Z 35008G13KT 09/M03 A3028 RMK A01 T00881031  RH  043%=      5-min Rain = 0
KBY1 191957Z 35006KT 09/M03 A3028 RMK A01 T00871032  RH  043%=      5-min Rain = 0
KBY1 191958Z 36007KT 09/M03 A3028 RMK A01 T00881029  RH  044%=      5-min Rain = 0
KBY1 191959Z 34009KT 09/M03 A3028 RMK A01 T00901028  RH  043%=      5-min Rain = 0
KBY1 192000Z 33011KT 09/M03 A3028 RMK A01 T00921030  RH  042%=      5-min Rain = 0
KBY1 192001Z 33009KT 09/M03 A3028 RMK A01 T00901032  RH  042%=      5-min Rain = 0
KBY1 192002Z 33007KT 09/M03 A3028 RMK A01 T00891031  RH  043%=      5-min Rain = 0
KBY1 192003Z 35011KT 09/M03 A3028 RMK A01 T00891031  RH  043%=      5-min Rain = 0
KBY1 192004Z 34010KT 09/M03 A3028 RMK A01 T00901031  RH  043%=      5-min Rain = 0
KBY1 192005Z 34007KT 09/M03 A3028 RMK A01 T00891031  RH  043%=      5-min Rain = 0
KBY1 192006Z 35005KT 09/M03 A3028 RMK A01 T00891029  RH  043%=      5-min Rain = 0
KBY1 192007Z 34007G12KT 09/M03 A3028 RMK A01 T00911027  RH  043%=      5-min Rain = 0
KBY1 192008Z 33009KT 09/M03 A3027 RMK A01 T00931029  RH  042%=      5-min Rain = 0
KBY1 192009Z 35009KT 09/M03 A3028 RMK A01 T00941027  RH  042%=      5-min Rain = 0
KBY1 192010Z 35010KT 10/M03 A3028 RMK A01 T00971028  RH  042%=      5-min Rain = 0
KBY1 192011Z 34008KT 09/M03 A3027 RMK A01 T00941031  RH  041%=      5-min Rain = 0
KBY1 192012Z 34008KT 09/M03 A3027 RMK A01 T00931030  RH  042%=      5-min Rain = 0
KBY1 192013Z 33004KT 09/M03 A3027 RMK A01 T00931030  RH  042%=      5-min Rain = 0
KBY1 192014Z 35004KT 09/M03 A3027 RMK A01 T00931028  RH  042%=      5-min Rain = 0
KBY1 192015Z 00008KT 10/M03 A3027 RMK A01 T00951029  RH  042%=      5-min Rain = 0
KBY1 192016Z 34007KT 09/M03 A3027 RMK A01 T00931030  RH  042%=      5-min Rain = 0
KBY1 192017Z 34011KT 09/M03 A3027 RMK A01 T00931030  RH  042%=      5-min Rain = 0
KBY1 192018Z 34007KT 09/M03 A3027 RMK A01 T00941031  RH  041%=      5-min Rain = 0
KBY1 192019Z 35007KT 10/M03 A3027 RMK A01 T00951030  RH  041%=      5-min Rain = 0
KBY1 192020Z 02007KT 10/M03 A3027 RMK A01 T00951030  RH  041%=      5-min Rain = 0
KBY1 192021Z 02007KT 09/M03 A3026 RMK A01 T00941029  RH  042%=      5-min Rain = 0
KBY1 192022Z 35008KT 10/M03 A3026 RMK A01 T00951025  RH  043%=      5-min Rain = 0
KBY1 192023Z 32008KT 10/M03 A3026 RMK A01 T00971025  RH  042%=      5-min Rain = 0
KBY1 192024Z 33009G14KT 10/M02 A3026 RMK A01 T00991024  RH  042%=      5-min Rain = 0
KBY1 192025Z 34010G15KT 10/M03 A3026 RMK A01 T01011026  RH  041%=      5-min Rain = 0
KBY1 192026Z 33013KT 10/M03 A3026 RMK A01 T01001027  RH  041%=      5-min Rain = 0
KBY1 192027Z 33009KT 10/M03 A3026 RMK A01 T00981027  RH  041%=      5-min Rain = 0
KBY1 192028Z 35008KT 10/M03 A3026 RMK A01 T00971031  RH  040%=      5-min Rain = 0
KBY1 192029Z 32008KT 09/M03 A3026 RMK A01 T00941032  RH  041%=      5-min Rain = 0
KBY1 192030Z 31009KT 10/M03 A3026 RMK A01 T00961029  RH  041%=      5-min Rain = 0
KBY1 192031Z 34008KT 10/M03 A3026 RMK A01 T00971030  RH  041%=      5-min Rain = 0
KBY1 192032Z 34005KT 10/M03 A3026 RMK A01 T00981030  RH  041%=      5-min Rain = 0
KBY1 192033Z 33008KT 10/M03 A3026 RMK A01 T00981027  RH  041%=      5-min Rain = 0
KBY1 192034Z 33010KT 10/M03 A3026 RMK A01 T01001026  RH  041%=      5-min Rain = 0
KBY1 192035Z 34006G11KT 10/M03 A3026 RMK A01 T01001032  RH  039%=      5-min Rain = 0
KBY1 192036Z 34007KT 10/M03 A3026 RMK A01 T00991031  RH  040%=      5-min Rain = 0
KBY1 192037Z 35008KT 10/M03 A3026 RMK A01 T00991029  RH  040%=      5-min Rain = 0
KBY1 192038Z 36005KT 10/M03 A3026 RMK A01 T00991029  RH  040%=      5-min Rain = 0
KBY1 192039Z 34011KT 10/M03 A3025 RMK A01 T01011032  RH  039%=      5-min Rain = 0
KBY1 192040Z 34012KT 10/M04 A3025 RMK A01 T01011035  RH  038%=      5-min Rain = 0
KBY1 192041Z 35010KT 10/M03 A3025 RMK A01 T01001034  RH  039%=      5-min Rain = 0
KBY1 192042Z 34009KT 10/M03 A3025 RMK A01 T00991034  RH  039%=      5-min Rain = 0
KBY1 192043Z 35010KT 10/M03 A3025 RMK A01 T01001034  RH  039%=      5-min Rain = 0
KBY1 192044Z 36011KT 10/M04 A3025 RMK A01 T00971035  RH  039%=      5-min Rain = 0
KBY1 192045Z 36011KT 10/M04 A3025 RMK A01 T00961035  RH  040%=      5-min Rain = 0
KBY1 192046Z 00008G13KT 10/M03 A3025 RMK A01 T00981033  RH  040%=      5-min Rain = 0
KBY1 192047Z 00012KT 10/M04 A3025 RMK A01 T01001035  RH  038%=      5-min Rain = 0
KBY1 192048Z 00009KT 10/M04 A3025 RMK A01 T00981036  RH  039%=      5-min Rain = 0
KBY1 192049Z 02009G14KT 10/M03 A3025 RMK A01 T00971034  RH  040%=      5-min Rain = 0
KBY1 192050Z 03011KT 10/M03 A3025 RMK A01 T00971031  RH  040%=      5-min Rain = 0
KBY1 192051Z 03012KT 10/M03 A3025 RMK A01 T00981031  RH  040%=      5-min Rain = 0
KBY1 192052Z 02012KT 10/M03 A3025 RMK A01 T00971031  RH  040%=      5-min Rain = 0
KBY1 192053Z 01011KT 10/M03 A3025 RMK A01 T00961030  RH  041%=      5-min Rain = 0
KBY1 192054Z 01009KT 10/M03 A3025 RMK A01 T00961030  RH  041%=      5-min Rain = 0
KBY1 192055Z 01010KT 10/M03 A3025 RMK A01 T00971030  RH  041%=      5-min Rain = 0
KBY1 192056Z 02006KT 10/M03 A3025 RMK A01 T00961033  RH  040%=      5-min Rain = 0
KBY1 192057Z 01007KT 09/M03 A3025 RMK A01 T00941032  RH  041%=      5-min Rain = 0
KBY1 192058Z 01011KT 10/M03 A3025 RMK A01 T00961030  RH  041%=      5-min Rain = 0
KBY1 192059Z 35008KT 10/M03 A3025 RMK A01 T00991031  RH  040%=      5-min Rain = 0
KBY1 192100Z 34009KT 10/M03 A3025 RMK A01 T01001031  RH  040%=      5-min Rain = 0
KBY1 192101Z 36009KT 10/M03 A3025 RMK A01 T01001031  RH  040%=      5-min Rain = 0
KBY1 192102Z 33008KT 10/M03 A3025 RMK A01 T00981031  RH  040%=      5-min Rain = 0
KBY1 192103Z 32009KT 10/M03 A3025 RMK A01 T01001029  RH  040%=      5-min Rain = 0
KBY1 192104Z 35004KT 10/M03 A3025 RMK A01 T01011029  RH  040%=      5-min Rain = 0
KBY1 192105Z 36004KT 10/M03 A3025 RMK A01 T01011030  RH  040%=      5-min Rain = 0
KBY1 192106Z 35007KT 10/M03 A3025 RMK A01 T01011031  RH  040%=      5-min Rain = 0
KBY1 192107Z 34007KT 10/M03 A3025 RMK A01 T01011032  RH  039%=      5-min Rain = 0
KBY1 192108Z 34009KT 10/M03 A3025 RMK A01 T01011031  RH  039%=      5-min Rain = 0
KBY1 192109Z 35010KT 10/M03 A3025 RMK A01 T01011030  RH  040%=      5-min Rain = 0
KBY1 192110Z 35006KT 10/M03 A3025 RMK A01 T01001031  RH  039%=      5-min Rain = 0
KBY1 192111Z 35004KT 10/M03 A3025 RMK A01 T01001030  RH  040%=      5-min Rain = 0
KBY1 192112Z 35004KT 10/M03 A3025 RMK A01 T01001029  RH  040%=      5-min Rain = 0
KBY1 192113Z 01007KT 10/M03 A3025 RMK A01 T01021030  RH  039%=      5-min Rain = 0
KBY1 192114Z 01005G10KT 10/M03 A3025 RMK A01 T01001033  RH  039%=      5-min Rain = 0
KBY1 192115Z 36007KT 10/M03 A3025 RMK A01 T01001032  RH  040%=      5-min Rain = 0
KBY1 192116Z 00007KT 10/M03 A3025 RMK A01 T01011032  RH  039%=      5-min Rain = 0
KBY1 192117Z 34006KT 10/M03 A3025 RMK A01 T01021034  RH  038%=      5-min Rain = 0
KBY1 192118Z 34006KT 10/M03 A3025 RMK A01 T01011034  RH  039%=      5-min Rain = 0
KBY1 192119Z 00007KT 10/M03 A3025 RMK A01 T01011033  RH  039%=      5-min Rain = 0
KBY1 192120Z 01007KT 10/M03 A3025 RMK A01 T01001030  RH  040%=      5-min Rain = 0
KBY1 192121Z 01006KT 10/M03 A3025 RMK A01 T01011027  RH  041%=      5-min Rain = 0
KBY1 192122Z 02005KT 10/M03 A3025 RMK A01 T01031027  RH  040%=      5-min Rain = 0
KBY1 192123Z 01004KT 10/M03 A3025 RMK A01 T01031031  RH  039%=      5-min Rain = 0
KBY1 192124Z 33004KT 10/M03 A3025 RMK A01 T01011033  RH  039%=      5-min Rain = 0
KBY1 192125Z 35005KT 10/M03 A3025 RMK A01 T01011032  RH  039%=      5-min Rain = 0
KBY1 192126Z 01006KT 10/M03 A3024 RMK A01 T01011033  RH  039%=      5-min Rain = 0
KBY1 192127Z 00008KT 10/M03 A3024 RMK A01 T01011033  RH  039%=      5-min Rain = 0
KBY1 192128Z 00008KT 10/M03 A3025 RMK A01 T01011033  RH  039%=      5-min Rain = 0
KBY1 192129Z 01006KT 10/M03 A3024 RMK A01 T01021032  RH  039%=      5-min Rain = 0
KBY1 192130Z 01006KT 10/M03 A3024 RMK A01 T01031030  RH  039%=      5-min Rain = 0
KBY1 192131Z 03009KT 10/M03 A3024 RMK A01 T01041031  RH  038%=      5-min Rain = 0
KBY1 192132Z 03008KT 10/M03 A3024 RMK A01 T01021033  RH  038%=      5-min Rain = 0
KBY1 192133Z 00006KT 10/M03 A3025 RMK A01 T01011034  RH  039%=      5-min Rain = 0
KBY1 192134Z 00005KT 10/M04 A3024 RMK A01 T01021036  RH  038%=      5-min Rain = 0
KBY1 192135Z 02003KT 10/M04 A3024 RMK A01 T01011035  RH  038%=      5-min Rain = 0
KBY1 192136Z 02006KT 10/M03 A3024 RMK A01 T01021034  RH  038%=      5-min Rain = 0
KBY1 192137Z 36006KT 10/M03 A3024 RMK A01 T01031033  RH  038%=      5-min Rain = 0
KBY1 192138Z 35006KT 10/M03 A3024 RMK A01 T01041032  RH  038%=      5-min Rain = 0
KBY1 192139Z 35006KT 10/M03 A3024 RMK A01 T01041032  RH  038%=      5-min Rain = 0
KBY1 192140Z 35005KT 11/M03 A3024 RMK A01 T01051031  RH  038%=      5-min Rain = 0
KBY1 192141Z 33006KT 11/M03 A3024 RMK A01 T01051033  RH  038%=      5-min Rain = 0
KBY1 192142Z 34005KT 10/M03 A3024 RMK A01 T01041033  RH  038%=      5-min Rain = 0
KBY1 192143Z 35006KT 10/M04 A3024 RMK A01 T01031035  RH  038%=      5-min Rain = 0
KBY1 192144Z 36007KT 10/M04 A3024 RMK A01 T01011035  RH  038%=      5-min Rain = 0
KBY1 192145Z 01006KT 10/M03 A3024 RMK A01 T01011033  RH  039%=      5-min Rain = 0
KBY1 192146Z 03004KT 10/M03 A3024 RMK A01 T01011031  RH  039%=      5-min Rain = 0
KBY1 192147Z 02003KT 10/M03 A3024 RMK A01 T01011033  RH  039%=      5-min Rain = 0
KBY1 192148Z 36003KT 10/M03 A3024 RMK A01 T01001033  RH  039%=      5-min Rain = 0
KBY1 192149Z 35004KT 10/M03 A3024 RMK A01 T01011030  RH  040%=      5-min Rain = 0
KBY1 192150Z 34007KT 11/M03 A3024 RMK A01 T01051029  RH  039%=      5-min Rain = 0
KBY1 192151Z 35006KT 10/M03 A3025 RMK A01 T01041033  RH  038%=      5-min Rain = 0
KBY1 192152Z 36003KT 10/M03 A3025 RMK A01 T01021034  RH  038%=      5-min Rain = 0
KBY1 192153Z 02002KT 10/M04 A3024 RMK A01 T01001035  RH  038%=      5-min Rain = 0
KBY1 192154Z 00003KT 10/M04 A3024 RMK A01 T01001035  RH  039%=      5-min Rain = 0
KBY1 192155Z 33004KT 10/M03 A3024 RMK A01 T01011032  RH  039%=      5-min Rain = 0
KBY1 192156Z 31003KT 10/M03 A3025 RMK A01 T01021033  RH  038%=      5-min Rain = 0
KBY1 192157Z 33003KT 10/M03 A3024 RMK A01 T01021034  RH  038%=      5-min Rain = 0
KBY1 192158Z 32002KT 10/M03 A3025 RMK A01 T01021034  RH  038%=      5-min Rain = 0
KBY1 192159Z 32002KT 10/M03 A3025 RMK A01 T01021034  RH  038%=      5-min Rain = 0
KBY1 192200Z 33002KT 10/M03 A3025 RMK A01 T01021034  RH  038%=      5-min Rain = 0
KBY1 192201Z 35003KT 10/M03 A3024 RMK A01 T01021034  RH  038%=      5-min Rain = 0
KBY1 192202Z 00002KT 10/M03 A3024 RMK A01 T01021034  RH  038%=      5-min Rain = 0
KBY1 192203Z 00003KT 10/M03 A3025 RMK A01 T01021033  RH  039%=      5-min Rain = 0
KBY1 192204Z 36003KT 10/M03 A3024 RMK A01 T01021034  RH  038%=      5-min Rain = 0
KBY1 192205Z 01002KT 10/M03 A3024 RMK A01 T01011034  RH  039%=      5-min Rain = 0
KBY1 192206Z 01001KT 10/M04 A3024 RMK A01 T01001035  RH  039%=      5-min Rain = 0
KBY1 192207Z 33000KT 10/M03 A3024 RMK A01 T01011034  RH  039%=      5-min Rain = 0
KBY1 192208Z 35001KT 10/M03 A3024 RMK A01 T01031033  RH  038%=      5-min Rain = 0
KBY1 192209Z 29000KT 10/M03 A3024 RMK A01 T01041033  RH  038%=      5-min Rain = 0
KBY1 192210Z 17001KT 11/M03 A3024 RMK A01 T01061032  RH  038%=      5-min Rain = 0
KBY1 192211Z 03001KT 11/M03 A3024 RMK A01 T01081031  RH  038%=      5-min Rain = 0
KBY1 192212Z 30003KT 11/M03 A3024 RMK A01 T01091033  RH  037%=      5-min Rain = 0
KBY1 192213Z 29003KT 11/M04 A3024 RMK A01 T01081035  RH  036%=      5-min Rain = 0
KBY1 192214Z 27004KT 11/M04 A3024 RMK A01 T01081035  RH  037%=      5-min Rain = 0
KBY1 192215Z 27004KT 11/M04 A3024 RMK A01 T01071035  RH  037%=      5-min Rain = 0
KBY1 192216Z 27001KT 11/M04 A3024 RMK A01 T01061036  RH  037%=      5-min Rain = 0
KBY1 192217Z 25003KT 11/M04 A3024 RMK A01 T01061035  RH  037%=      5-min Rain = 0
KBY1 192218Z 24005KT 11/M03 A3024 RMK A01 T01071034  RH  037%=      5-min Rain = 0
KBY1 192219Z 24005KT 11/M04 A3024 RMK A01 T01071035  RH  037%=      5-min Rain = 0
KBY1 192220Z 22003KT 11/M04 A3024 RMK A01 T01061035  RH  037%=      5-min Rain = 0
KBY1 192221Z 23003KT 11/M04 A3024 RMK A01 T01051035  RH  037%=      5-min Rain = 0
KBY1 192222Z 25004KT 11/M03 A3024 RMK A01 T01051034  RH  037%=      5-min Rain = 0
KBY1 192223Z 24003KT 11/M04 A3024 RMK A01 T01061035  RH  037%=      5-min Rain = 0
KBY1 192224Z 24004KT 11/M04 A3024 RMK A01 T01061036  RH  037%=      5-min Rain = 0
KBY1 192225Z 25002KT 11/M04 A3024 RMK A01 T01051036  RH  037%=      5-min Rain = 0
KBY1 192226Z 23005KT 10/M04 A3024 RMK A01 T01041036  RH  037%=      5-min Rain = 0
KBY1 192227Z 22003KT 10/M04 A3024 RMK A01 T01041035  RH  037%=      5-min Rain = 0
KBY1 192228Z 19001KT 10/M04 A3024 RMK A01 T01041037  RH  037%=      5-min Rain = 0
KBY1 192229Z 10000KT 10/M04 A3024 RMK A01 T01041036  RH  037%=      5-min Rain = 0
KBY1 192230Z 03000KT 11/M04 A3024 RMK A01 T01051037  RH  037%=      5-min Rain = 0
KBY1 192231Z 16001KT 10/M04 A3024 RMK A01 T01041036  RH  037%=      5-min Rain = 0
KBY1 192232Z 16002KT 11/M04 A3024 RMK A01 T01051036  RH  037%=      5-min Rain = 0
KBY1 192233Z 16002KT 11/M04 A3024 RMK A01 T01061037  RH  036%=      5-min Rain = 0
KBY1 192234Z 18002KT 11/M04 A3024 RMK A01 T01061036  RH  037%=      5-min Rain = 0
KBY1 192235Z 23002KT 11/M04 A3024 RMK A01 T01061035  RH  037%=      5-min Rain = 0
KBY1 192236Z 22002KT 11/M04 A3024 RMK A01 T01071037  RH  036%=      5-min Rain = 0
KBY1 192237Z 22002KT 11/M04 A3025 RMK A01 T01061038  RH  036%=      5-min Rain = 0
KBY1 192238Z 24002KT 11/M04 A3025 RMK A01 T01061038  RH  036%=      5-min Rain = 0
KBY1 192239Z 21002KT 11/M04 A3025 RMK A01 T01071036  RH  037%=      5-min Rain = 0
KBY1 192240Z 18002KT 11/M04 A3025 RMK A01 T01081036  RH  036%=      5-min Rain = 0
KBY1 192241Z 22004KT 11/M04 A3025 RMK A01 T01081036  RH  036%=      5-min Rain = 0
KBY1 192242Z 28005KT 11/M04 A3025 RMK A01 T01081037  RH  036%=      5-min Rain = 0
KBY1 192243Z 31004KT 11/M04 A3025 RMK A01 T01081037  RH  036%=      5-min Rain = 0
KBY1 192244Z 31004KT 11/M04 A3025 RMK A01 T01061039  RH  036%=      5-min Rain = 0
KBY1 192245Z 29003KT 11/M04 A3025 RMK A01 T01051038  RH  036%=      5-min Rain = 0
KBY1 192246Z 30002KT 11/M04 A3025 RMK A01 T01051038  RH  036%=      5-min Rain = 0
KBY1 192247Z 34002KT 11/M04 A3025 RMK A01 T01051038  RH  036%=      5-min Rain = 0
KBY1 192248Z 33000KT 11/M04 A3025 RMK A01 T01051039  RH  036%=      5-min Rain = 0
KBY1 192249Z 03000KT 11/M04 A3025 RMK A01 T01051038  RH  036%=      5-min Rain = 0
KBY1 192250Z 36000KT 11/M04 A3025 RMK A01 T01051038  RH  036%=      5-min Rain = 0
KBY1 192251Z 01000KT 11/M04 A3025 RMK A01 T01061038  RH  036%=      5-min Rain = 0
KBY1 192252Z 03000KT 11/M04 A3025 RMK A01 T01071037  RH  036%=      5-min Rain = 0
KBY1 192253Z 33003KT 11/M04 A3025 RMK A01 T01081037  RH  036%=      5-min Rain = 0
KBY1 192254Z 32004KT 11/M04 A3025 RMK A01 T01071038  RH  036%=      5-min Rain = 0
KBY1 192255Z 32004KT 11/M04 A3025 RMK A01 T01061038  RH  036%=      5-min Rain = 0
KBY1 192256Z 34004KT 11/M04 A3025 RMK A01 T01051038  RH  036%=      5-min Rain = 0
KBY1 192257Z 33003KT 10/M04 A3025 RMK A01 T01041039  RH  036%=      5-min Rain = 0
KBY1 192258Z 34002KT 10/M04 A3025 RMK A01 T01031039  RH  037%=      5-min Rain = 0
KBY1 192259Z 32001KT 10/M04 A3025 RMK A01 T01021040  RH  037%=      5-min Rain = 0
KBY1 192300Z 25002KT 10/M04 A3025 RMK A01 T01021038  RH  037%=      5-min Rain = 0
KBY1 192301Z 24002KT 10/M04 A3025 RMK A01 T01041038  RH  037%=      5-min Rain = 0
KBY1 192302Z 22002KT 11/M04 A3025 RMK A01 T01051037  RH  037%=      5-min Rain = 0
KBY1 192303Z 23002KT 11/M04 A3025 RMK A01 T01061038  RH  036%=      5-min Rain = 0
KBY1 192304Z 22002KT 11/M04 A3025 RMK A01 T01071039  RH  036%=      5-min Rain = 0
KBY1 192305Z 24001KT 11/M04 A3025 RMK A01 T01061039  RH  036%=      5-min Rain = 0
KBY1 192306Z 24001KT 11/M04 A3025 RMK A01 T01071039  RH  036%=      5-min Rain = 0
KBY1 192307Z 23001KT 11/M04 A3025 RMK A01 T01071039  RH  036%=      5-min Rain = 0
KBY1 192308Z 23001KT 11/M04 A3025 RMK A01 T01081039  RH  035%=      5-min Rain = 0
KBY1 192309Z 23001KT 11/M04 A3025 RMK A01 T01081038  RH  036%=      5-min Rain = 0
KBY1 192310Z 27000KT 11/M04 A3025 RMK A01 T01081039  RH  035%=      5-min Rain = 0
KBY1 192311Z 34000KT 11/M04 A3025 RMK A01 T01091039  RH  035%=      5-min Rain = 0
KBY1 192312Z 02001KT 11/M04 A3025 RMK A01 T01091040  RH  035%=      5-min Rain = 0
KBY1 192313Z 02002KT 11/M04 A3025 RMK A01 T01071041  RH  035%=      5-min Rain = 0
KBY1 192314Z 35004KT 11/M04 A3025 RMK A01 T01051040  RH  036%=      5-min Rain = 0
KBY1 192315Z 33004KT 10/M04 A3025 RMK A01 T01031040  RH  036%=      5-min Rain = 0
KBY1 192316Z 33002KT 10/M04 A3025 RMK A01 T01021040  RH  037%=      5-min Rain = 0
KBY1 192317Z 34001KT 10/M04 A3025 RMK A01 T01011041  RH  037%=      5-min Rain = 0
KBY1 192318Z 35002KT 10/M04 A3025 RMK A01 T01011040  RH  037%=      5-min Rain = 0
KBY1 192319Z 35002KT 10/M04 A3025 RMK A01 T01001040  RH  037%=      5-min Rain = 0
KBY1 192320Z 34002KT 10/M04 A3025 RMK A01 T01001039  RH  037%=      5-min Rain = 0
KBY1 192321Z 33003KT 10/M04 A3025 RMK A01 T01001037  RH  038%=      5-min Rain = 0
KBY1 192322Z 32004KT 10/M04 A3025 RMK A01 T01001037  RH  038%=      5-min Rain = 0
KBY1 192323Z 32004KT 10/M04 A3025 RMK A01 T01001037  RH  038%=      5-min Rain = 0
KBY1 192324Z 32004KT 10/M04 A3025 RMK A01 T00991037  RH  038%=      5-min Rain = 0
KBY1 192325Z 33003KT 10/M04 A3025 RMK A01 T00991037  RH  038%=      5-min Rain = 0
KBY1 192326Z 33003KT 10/M04 A3025 RMK A01 T00981037  RH  039%=      5-min Rain = 0
KBY1 192327Z 33002KT 10/M04 A3025 RMK A01 T00971037  RH  039%=      5-min Rain = 0
KBY1 192328Z 33002KT 10/M04 A3025 RMK A01 T00971037  RH  039%=      5-min Rain = 0
KBY1 192329Z 33001KT 10/M04 A3025 RMK A01 T00961038  RH  039%=      5-min Rain = 0
KBY1 192330Z 32001KT 10/M04 A3025 RMK A01 T00961038  RH  038%=      5-min Rain = 0
KBY1 192331Z 32000KT 10/M04 A3025 RMK A01 T00961039  RH  038%=      5-min Rain = 0
KBY1 192332Z 32001KT 10/M04 A3025 RMK A01 T00971038  RH  039%=      5-min Rain = 0
KBY1 192333Z 32000KT 10/M04 A3025 RMK A01 T00971038  RH  038%=      5-min Rain = 0
KBY1 192334Z 32000KT 10/M04 A3025 RMK A01 T00971036  RH  039%=      5-min Rain = 0
KBY1 192335Z 00000KT 10/M04 A3025 RMK A01 T00981036  RH  039%=      5-min Rain = 0
KBY1 192336Z 33000KT 10/M04 A3025 RMK A01 T00971039  RH  038%=      5-min Rain = 0
KBY1 192337Z 33000KT 10/M04 A3025 RMK A01 T00971038  RH  038%=      5-min Rain = 0
KBY1 192338Z 33000KT 10/M04 A3025 RMK A01 T00961039  RH  038%=      5-min Rain = 0
KBY1 192339Z 00000KT 10/M04 A3025 RMK A01 T00961039  RH  039%=      5-min Rain = 0
KBY1 192340Z 00000KT 10/M04 A3025 RMK A01 T00961039  RH  039%=      5-min Rain = 0
KBY1 192341Z 00000KT 10/M04 A3025 RMK A01 T00961038  RH  039%=      5-min Rain = 0
KBY1 192342Z 00000KT 10/M04 A3025 RMK A01 T00961039  RH  038%=      5-min Rain = 0
KBY1 192343Z 00000KT 10/M04 A3025 RMK A01 T00971039  RH  038%=      5-min Rain = 0
KBY1 192344Z 00000KT 10/M04 A3025 RMK A01 T00981038  RH  038%=      5-min Rain = 0
KBY1 192345Z 00000KT 10/M04 A3025 RMK A01 T00991038  RH  038%=      5-min Rain = 0
KBY1 192346Z 33000KT 10/M04 A3025 RMK A01 T01001038  RH  038%=      5-min Rain = 0
KBY1 192347Z 14001KT 10/M04 A3025 RMK A01 T01011039  RH  037%=      5-min Rain = 0
KBY1 192348Z 15001KT 10/M04 A3025 RMK A01 T01011039  RH  037%=      5-min Rain = 0
KBY1 192349Z 13002KT 10/M04 A3025 RMK A01 T01001039  RH  037%=      5-min Rain = 0
KBY1 192350Z 13002KT 10/M04 A3025 RMK A01 T01001039  RH  037%=      5-min Rain = 0
KBY1 192351Z 12003KT 10/M04 A3025 RMK A01 T00981040  RH  038%=      5-min Rain = 0
KBY1 192352Z 13002KT 09/M04 A3025 RMK A01 T00941041  RH  038%=      5-min Rain = 0
KBY1 192353Z 13002KT 09/M04 A3025 RMK A01 T00891042  RH  039%=      5-min Rain = 0
KBY1 192354Z 13003KT 08/M04 A3025 RMK A01 T00841043  RH  040%=      5-min Rain = 0
KBY1 192355Z 13003KT 08/M04 A3025 RMK A01 T00811042  RH  041%=      5-min Rain = 0
KBY1 192356Z 13003KT 08/M04 A3025 RMK A01 T00781042  RH  042%=      5-min Rain = 0
KBY1 192357Z 13003KT 08/M04 A3025 RMK A01 T00761042  RH  043%=      5-min Rain = 0
KBY1 192358Z 13003KT 07/M04 A3025 RMK A01 T00741041  RH  044%=      5-min Rain = 0
KBY1 192359Z 13003KT 07/M04 A3025 RMK A01 T00721041  RH  044%=      5-min Rain = 0
KBY1 200000Z 13003KT 07/M04 A3025 RMK A01 T00711041  RH  045%=      5-min Rain = 0
KBY1 200001Z 13003KT 07/M04 A3025 RMK A01 T00711040  RH  045%=      5-min Rain = 0
KBY1 200002Z 13003KT 07/M04 A3026 RMK A01 T00701040  RH  045%=      5-min Rain = 0
KBY1 200003Z 12002KT 07/M04 A3025 RMK A01 T00691041  RH  046%=      5-min Rain = 0
KBY1 200004Z 11003KT 07/M04 A3025 RMK A01 T00691040  RH  046%=      5-min Rain = 0
KBY1 200005Z 09003KT 07/M04 A3025 RMK A01 T00681040  RH  046%=      5-min Rain = 0
KBY1 200006Z 10003KT 07/M04 A3025 RMK A01 T00671040  RH  046%=      5-min Rain = 0
KBY1 200007Z 11003KT 07/M04 A3025 RMK A01 T00671039  RH  047%=      5-min Rain = 0
KBY1 200008Z 11003KT 07/M04 A3025 RMK A01 T00661040  RH  047%=      5-min Rain = 0
KBY1 200009Z 12002KT 06/M04 A3025 RMK A01 T00641039  RH  047%=      5-min Rain = 0
KBY1 200010Z 12002KT 06/M04 A3025 RMK A01 T00641039  RH  048%=      5-min Rain = 0
KBY1 200011Z 12002KT 06/M04 A3025 RMK A01 T00621039  RH  048%=      5-min Rain = 0
KBY1 200012Z 12002KT 06/M04 A3025 RMK A01 T00611040  RH  049%=      5-min Rain = 0
KBY1 200013Z 13002KT 06/M04 A3025 RMK A01 T00601039  RH  049%=      5-min Rain = 0
KBY1 200014Z 14002KT 06/M04 A3026 RMK A01 T00591038  RH  050%=      5-min Rain = 0
KBY1 200015Z 12001KT 06/M04 A3026 RMK A01 T00591037  RH  050%=      5-min Rain = 0
KBY1 200016Z 09002KT 06/M04 A3026 RMK A01 T00571037  RH  051%=      5-min Rain = 0
KBY1 200017Z 08003KT 06/M04 A3026 RMK A01 T00561037  RH  051%=      5-min Rain = 0
KBY1 200018Z 09004KT 05/M04 A3026 RMK A01 T00541037  RH  052%=      5-min Rain = 0
KBY1 200019Z 09004KT 05/M04 A3026 RMK A01 T00511039  RH  052%=      5-min Rain = 0
KBY1 200020Z 10003KT 05/M04 A3026 RMK A01 T00491038  RH  053%=      5-min Rain = 0
KBY1 200021Z 11003KT 05/M04 A3026 RMK A01 T00471038  RH  054%=      5-min Rain = 0
KBY1 200022Z 10004KT 05/M04 A3026 RMK A01 T00471038  RH  054%=      5-min Rain = 0
KBY1 200023Z 10004KT 05/M04 A3026 RMK A01 T00451038  RH  055%=      5-min Rain = 0
KBY1 200024Z 12004KT 04/M04 A3026 RMK A01 T00431038  RH  055%=      5-min Rain = 0
KBY1 200025Z 12004KT 04/M04 A3026 RMK A01 T00431037  RH  056%=      5-min Rain = 0
KBY1 200026Z 12004KT 04/M04 A3026 RMK A01 T00421036  RH  057%=      5-min Rain = 0
KBY1 200027Z 12004KT 04/M04 A3026 RMK A01 T00411037  RH  057%=      5-min Rain = 0
KBY1 200028Z 12004KT 04/M04 A3026 RMK A01 T00411037  RH  057%=      5-min Rain = 0
KBY1 200029Z 12005KT 04/M04 A3026 RMK A01 T00411037  RH  057%=      5-min Rain = 0
KBY1 200030Z 12005KT 04/M04 A3026 RMK A01 T00401038  RH  057%=      5-min Rain = 0
KBY1 200031Z 12005KT 04/M04 A3026 RMK A01 T00391038  RH  057%=      5-min Rain = 0
KBY1 200032Z 12005KT 04/M04 A3025 RMK A01 T00391038  RH  058%=      5-min Rain = 0
KBY1 200033Z 12005KT 04/M04 A3025 RMK A01 T00381037  RH  058%=      5-min Rain = 0
KBY1 200034Z 11004KT 04/M04 A3025 RMK A01 T00371038  RH  058%=      5-min Rain = 0
KBY1 200035Z 11004KT 04/M04 A3025 RMK A01 T00361038  RH  058%=      5-min Rain = 0
KBY1 200036Z 10004KT 04/M04 A3025 RMK A01 T00351038  RH  059%=      5-min Rain = 0
KBY1 200037Z 10004KT 04/M04 A3025 RMK A01 T00351037  RH  059%=      5-min Rain = 0
KBY1 200038Z 09004KT 04/M04 A3025 RMK A01 T00351037  RH  060%=      5-min Rain = 0
KBY1 200039Z 09005KT 03/M04 A3025 RMK A01 T00341037  RH  060%=      5-min Rain = 0
KBY1 200040Z 09005KT 03/M04 A3025 RMK A01 T00341036  RH  060%=      5-min Rain = 0
KBY1 200041Z 09004KT 03/M04 A3025 RMK A01 T00331036  RH  060%=      5-min Rain = 0
KBY1 200042Z 10004KT 03/M04 A3025 RMK A01 T00321036  RH  061%=      5-min Rain = 0
KBY1 200043Z 10004KT 03/M04 A3025 RMK A01 T00321035  RH  061%=      5-min Rain = 0
KBY1 200044Z 11004KT 03/M04 A3025 RMK A01 T00321035  RH  061%=      5-min Rain = 0
KBY1 200045Z 12004KT 03/M04 A3025 RMK A01 T00321036  RH  061%=      5-min Rain = 0
KBY1 200046Z 12005KT 03/M04 A3025 RMK A01 T00311036  RH  061%=      5-min Rain = 0
KBY1 200047Z 12004KT 03/M04 A3025 RMK A01 T00311037  RH  061%=      5-min Rain = 0
KBY1 200048Z 12004KT 03/M04 A3025 RMK A01 T00301037  RH  061%=      5-min Rain = 0
KBY1 200049Z 12004KT 03/M04 A3025 RMK A01 T00301037  RH  061%=      5-min Rain = 0
KBY1 200050Z 12004KT 03/M04 A3025 RMK A01 T00301037  RH  061%=      5-min Rain = 0
KBY1 200051Z 11005KT 03/M04 A3025 RMK A01 T00291038  RH  061%=      5-min Rain = 0
KBY1 200052Z 11005KT 03/M04 A3024 RMK A01 T00291038  RH  062%=      5-min Rain = 0
KBY1 200053Z 10005KT 03/M04 A3024 RMK A01 T00281038  RH  062%=      5-min Rain = 0
KBY1 200054Z 09005KT 03/M04 A3024 RMK A01 T00271038  RH  062%=      5-min Rain = 0
KBY1 200055Z 09004KT 03/M04 A3024 RMK A01 T00261039  RH  062%=      5-min Rain = 0
KBY1 200056Z 09005KT 03/M04 A3024 RMK A01 T00251038  RH  063%=      5-min Rain = 0
KBY1 200057Z 09005KT 02/M04 A3024 RMK A01 T00241038  RH  064%=      5-min Rain = 0
KBY1 200058Z 09005KT 02/M04 A3024 RMK A01 T00231037  RH  064%=      5-min Rain = 0
KBY1 200059Z 09005KT 02/M04 A3024 RMK A01 T00231037  RH  064%=      5-min Rain = 0
KBY1 200100Z 10004KT 02/M04 A3024 RMK A01 T00231037  RH  064%=      5-min Rain = 0
KBY1 200101Z 10005KT 02/M04 A3024 RMK A01 T00231037  RH  064%=      5-min Rain = 0
KBY1 200102Z 09005KT 02/M04 A3024 RMK A01 T00231038  RH  064%=      5-min Rain = 0
KBY1 200103Z 08005KT 02/M04 A3024 RMK A01 T00231039  RH  064%=      5-min Rain = 0
KBY1 200104Z 08006KT 02/M04 A3023 RMK A01 T00211039  RH  064%=      5-min Rain = 0
KBY1 200105Z 07005KT 02/M04 A3023 RMK A01 T00201038  RH  065%=      5-min Rain = 0
KBY1 200106Z 08006KT 02/M04 A3023 RMK A01 T00211036  RH  066%=      5-min Rain = 0
KBY1 200107Z 08006KT 02/M04 A3023 RMK A01 T00221036  RH  066%=      5-min Rain = 0
KBY1 200108Z 08005KT 02/M04 A3023 RMK A01 T00231036  RH  065%=      5-min Rain = 0
KBY1 200109Z 09005KT 02/M04 A3024 RMK A01 T00231036  RH  065%=      5-min Rain = 0
KBY1 200110Z 08005KT 02/M04 A3024 RMK A01 T00241036  RH  065%=      5-min Rain = 0
KBY1 200111Z 09004KT 02/M04 A3024 RMK A01 T00241036  RH  065%=      5-min Rain = 0
KBY1 200112Z 09004KT 02/M04 A3024 RMK A01 T00241037  RH  064%=      5-min Rain = 0
KBY1 200113Z 10004KT 02/M04 A3024 RMK A01 T00231037  RH  064%=      5-min Rain = 0
KBY1 200114Z 10003KT 02/M04 A3024 RMK A01 T00221038  RH  065%=      5-min Rain = 0
KBY1 200115Z 10004KT 02/M04 A3024 RMK A01 T00211038  RH  065%=      5-min Rain = 0
KBY1 200116Z 10003KT 02/M04 A3024 RMK A01 T00201039  RH  065%=      5-min Rain = 0
KBY1 200117Z 10003KT 02/M04 A3024 RMK A01 T00201039  RH  065%=      5-min Rain = 0
KBY1 200118Z 11002KT 02/M04 A3024 RMK A01 T00191039  RH  065%=      5-min Rain = 0
KBY1 200119Z 10002KT 02/M04 A3024 RMK A01 T00191039  RH  066%=      5-min Rain = 0
KBY1 200120Z 09002KT 02/M04 A3024 RMK A01 T00191038  RH  066%=      5-min Rain = 0
KBY1 200121Z 08003KT 02/M04 A3023 RMK A01 T00191039  RH  066%=      5-min Rain = 0
KBY1 200122Z 08004KT 02/M04 A3023 RMK A01 T00191038  RH  066%=      5-min Rain = 0
KBY1 200123Z 09003KT 02/M04 A3024 RMK A01 T00191039  RH  065%=      5-min Rain = 0
KBY1 200124Z 09003KT 02/M04 A3024 RMK A01 T00181039  RH  066%=      5-min Rain = 0
KBY1 200125Z 08003KT 02/M04 A3024 RMK A01 T00181039  RH  066%=      5-min Rain = 0
KBY1 200126Z 07004KT 02/M04 A3024 RMK A01 T00181040  RH  066%=      5-min Rain = 0
KBY1 200127Z 07004KT 02/M04 A3024 RMK A01 T00181040  RH  065%=      5-min Rain = 0
KBY1 200128Z 07004KT 02/M04 A3024 RMK A01 T00181041  RH  065%=      5-min Rain = 0
KBY1 200129Z 07003KT 02/M04 A3024 RMK A01 T00181040  RH  065%=      5-min Rain = 0
KBY1 200130Z 08004KT 02/M04 A3024 RMK A01 T00201040  RH  065%=      5-min Rain = 0
KBY1 200131Z 07003KT 02/M04 A3024 RMK A01 T00211040  RH  064%=      5-min Rain = 0
KBY1 200132Z 07003KT 02/M04 A3025 RMK A01 T00231040  RH  063%=      5-min Rain = 0
KBY1 200133Z 07003KT 02/M04 A3025 RMK A01 T00241040  RH  063%=      5-min Rain = 0
KBY1 200134Z 07002KT 03/M04 A3025 RMK A01 T00251040  RH  062%=      5-min Rain = 0
KBY1 200135Z 07002KT 03/M04 A3025 RMK A01 T00251041  RH  062%=      5-min Rain = 0
KBY1 200136Z 07002KT 03/M04 A3026 RMK A01 T00251041  RH  062%=      5-min Rain = 0
KBY1 200137Z 07002KT 03/M04 A3026 RMK A01 T00251041  RH  062%=      5-min Rain = 0
KBY1 200138Z 06002KT 03/M04 A3026 RMK A01 T00251041  RH  062%=      5-min Rain = 0
KBY1 200139Z 05003KT 02/M04 A3026 RMK A01 T00241041  RH  062%=      5-min Rain = 0
KBY1 200140Z 06003KT 02/M04 A3026 RMK A01 T00241041  RH  062%=      5-min Rain = 0
KBY1 200141Z 06003KT 02/M04 A3026 RMK A01 T00241041  RH  062%=      5-min Rain = 0
KBY1 200142Z 06003KT 02/M04 A3026 RMK A01 T00241041  RH  062%=      5-min Rain = 0
KBY1 200143Z 06003KT 02/M04 A3026 RMK A01 T00231041  RH  062%=      5-min Rain = 0
KBY1 200144Z 07003KT 02/M04 A3026 RMK A01 T00221042  RH  063%=      5-min Rain = 0
KBY1 200145Z 06003KT 02/M04 A3026 RMK A01 T00221042  RH  063%=      5-min Rain = 0
KBY1 200146Z 06003KT 02/M04 A3026 RMK A01 T00211042  RH  063%=      5-min Rain = 0
KBY1 200147Z 06003KT 02/M04 A3026 RMK A01 T00201042  RH  063%=      5-min Rain = 0
KBY1 200148Z 06003KT 02/M04 A3026 RMK A01 T00201042  RH  063%=      5-min Rain = 0
KBY1 200149Z 06003KT 02/M04 A3026 RMK A01 T00191043  RH  064%=      5-min Rain = 0
KBY1 200150Z 06004KT 02/M04 A3026 RMK A01 T00191042  RH  064%=      5-min Rain = 0
KBY1 200151Z 07004KT 02/M04 A3026 RMK A01 T00181043  RH  064%=      5-min Rain = 0
KBY1 200152Z 07004KT 02/M04 A3026 RMK A01 T00161044  RH  064%=      5-min Rain = 0
KBY1 200153Z 07004KT 02/M04 A3026 RMK A01 T00161044  RH  065%=      5-min Rain = 0
KBY1 200154Z 08003KT 02/M05 A3026 RMK A01 T00151045  RH  065%=      5-min Rain = 0
KBY1 200155Z 08004KT 01/M05 A3026 RMK A01 T00131046  RH  065%=      5-min Rain = 0
KBY1 200156Z 08004KT 01/M05 A3026 RMK A01 T00121045  RH  066%=      5-min Rain = 0
KBY1 200157Z 08004KT 01/M05 A3026 RMK A01 T00111045  RH  066%=      5-min Rain = 0
KBY1 200158Z 08003KT 01/M05 A3026 RMK A01 T00101046  RH  066%=      5-min Rain = 0
KBY1 200159Z 09003KT 01/M05 A3026 RMK A01 T00091046  RH  066%=      5-min Rain = 0
KBY1 200200Z 10003KT 01/M05 A3026 RMK A01 T00071048  RH  067%=      5-min Rain = 0
KBY1 200201Z 10003KT 01/M05 A3026 RMK A01 T00051049  RH  067%=      5-min Rain = 0
KBY1 200202Z 09003KT 00/M05 A3026 RMK A01 T00041049  RH  067%=      5-min Rain = 0
KBY1 200203Z 09003KT 00/M05 A3026 RMK A01 T00031050  RH  068%=      5-min Rain = 0
KBY1 200204Z 08003KT 00/M05 A3026 RMK A01 T00011049  RH  069%=      5-min Rain = 0
KBY1 200205Z 08003KT 00/M05 A3026 RMK A01 T00011048  RH  070%=      5-min Rain = 0
KBY1 200206Z 08003KT 00/M05 A3026 RMK A01 T00021046  RH  070%=      5-min Rain = 0
KBY1 200207Z 07003KT 00/M05 A3026 RMK A01 T00031045  RH  070%=      5-min Rain = 0
KBY1 200208Z 06003KT 01/M04 A3026 RMK A01 T00051044  RH  070%=      5-min Rain = 0
KBY1 200209Z 06004KT 01/M04 A3026 RMK A01 T00071044  RH  069%=      5-min Rain = 0
KBY1 200210Z 06004KT 01/M05 A3026 RMK A01 T00081045  RH  068%=      5-min Rain = 0
KBY1 200211Z 07004KT 01/M05 A3026 RMK A01 T00081045  RH  067%=      5-min Rain = 0
KBY1 200212Z 07004KT 01/M05 A3026 RMK A01 T00081046  RH  067%=      5-min Rain = 0
KBY1 200213Z 07004KT 01/M05 A3026 RMK A01 T00081046  RH  067%=      5-min Rain = 0
KBY1 200214Z 07004KT 01/M05 A3026 RMK A01 T00091045  RH  067%=      5-min Rain = 0
KBY1 200215Z 08004KT 01/M05 A3026 RMK A01 T00111045  RH  067%=      5-min Rain = 0
KBY1 200216Z 08004KT 01/M05 A3026 RMK A01 T00101047  RH  066%=      5-min Rain = 0
KBY1 200217Z 08004KT 01/M05 A3025 RMK A01 T00071050  RH  066%=      5-min Rain = 0
KBY1 200218Z 08004KT 01/M05 A3025 RMK A01 T00051050  RH  067%=      5-min Rain = 0
KBY1 200219Z 08004KT 00/M05 A3025 RMK A01 T00031050  RH  068%=      5-min Rain = 0
KBY1 200220Z 08003KT 00/M05 A3025 RMK A01 T00021049  RH  068%=      5-min Rain = 0
KBY1 200221Z 08003KT 00/M05 A3026 RMK A01 T00011050  RH  069%=      5-min Rain = 0
KBY1 200222Z 07002KT M00/M05 A3026 RMK A01 T10021053  RH  069%=      5-min Rain = 0
KBY1 200223Z 07002KT M00/M05 A3026 RMK A01 T10031054  RH  069%=      5-min Rain = 0
KBY1 200224Z 07001KT M01/M05 A3027 RMK A01 T10051053  RH  070%=      5-min Rain = 0
KBY1 200225Z 07001KT M01/M05 A3027 RMK A01 T10061052  RH  071%=      5-min Rain = 0
KBY1 200226Z 07001KT M01/M05 A3027 RMK A01 T10061051  RH  072%=      5-min Rain = 0
KBY1 200227Z 07002KT M01/M05 A3026 RMK A01 T10071051  RH  072%=      5-min Rain = 0
KBY1 200228Z 09002KT M01/M05 A3026 RMK A01 T10071050  RH  072%=      5-min Rain = 0
KBY1 200229Z 09002KT M01/M05 A3026 RMK A01 T10071050  RH  073%=      5-min Rain = 0
KBY1 200230Z 09002KT M01/M05 A3025 RMK A01 T10061049  RH  073%=      5-min Rain = 0
KBY1 200231Z 09002KT M01/M05 A3025 RMK A01 T10061049  RH  072%=      5-min Rain = 0
KBY1 200232Z 09002KT M01/M05 A3025 RMK A01 T10061049  RH  072%=      5-min Rain = 0
KBY1 200233Z 10002KT M01/M05 A3025 RMK A01 T10051049  RH  072%=      5-min Rain = 0
KBY1 200234Z 12002KT M01/M05 A3025 RMK A01 T10051049  RH  072%=      5-min Rain = 0
KBY1 200235Z 11002KT M01/M05 A3025 RMK A01 T10051050  RH  072%=      5-min Rain = 0
KBY1 200236Z 11002KT M01/M05 A3025 RMK A01 T10061050  RH  072%=      5-min Rain = 0
KBY1 200237Z 10002KT M01/M05 A3025 RMK A01 T10061050  RH  072%=      5-min Rain = 0
KBY1 200238Z 10003KT M01/M05 A3025 RMK A01 T10071051  RH  072%=      5-min Rain = 0
KBY1 200239Z 09002KT M01/M05 A3025 RMK A01 T10071051  RH  072%=      5-min Rain = 0
KBY1 200240Z 07002KT M01/M05 A3025 RMK A01 T10081052  RH  072%=      5-min Rain = 0
KBY1 200241Z 06002KT M01/M05 A3026 RMK A01 T10081051  RH  073%=      5-min Rain = 0
KBY1 200242Z 06003KT M01/M05 A3026 RMK A01 T10081050  RH  073%=      5-min Rain = 0
KBY1 200243Z 06003KT M01/M05 A3026 RMK A01 T10081050  RH  073%=      5-min Rain = 0
KBY1 200244Z 06003KT M01/M05 A3025 RMK A01 T10061049  RH  073%=      5-min Rain = 0
KBY1 200245Z 06004KT M01/M05 A3025 RMK A01 T10051049  RH  072%=      5-min Rain = 0
KBY1 200246Z 07003KT M00/M05 A3025 RMK A01 T10031049  RH  071%=      5-min Rain = 0
KBY1 200247Z 07004KT M00/M05 A3025 RMK A01 T10021048  RH  071%=      5-min Rain = 0
KBY1 200248Z 07004KT M00/M05 A3025 RMK A01 T10011049  RH  070%=      5-min Rain = 0
KBY1 200249Z 08004KT 00/05 A3025 RMK A01 T00-00-49  RH  070%=      5-min Rain = 0
KBY1 200250Z 08003KT M00/M05 A3025 RMK A01 T10011049  RH  070%=      5-min Rain = 0
KBY1 200251Z 08003KT M00/M05 A3025 RMK A01 T10011050  RH  070%=      5-min Rain = 0
KBY1 200252Z 08003KT M00/M05 A3025 RMK A01 T10011050  RH  070%=      5-min Rain = 0
KBY1 200253Z 08003KT M00/M05 A3025 RMK A01 T10011050  RH  070%=      5-min Rain = 0
KBY1 200254Z 08003KT M00/M05 A3025 RMK A01 T10021051  RH  070%=      5-min Rain = 0
KBY1 200255Z 08003KT M00/M05 A3025 RMK A01 T10021051  RH  070%=      5-min Rain = 0
KBY1 200256Z 09003KT M00/M05 A3025 RMK A01 T10021051  RH  070%=      5-min Rain = 0
KBY1 200257Z 09003KT M00/M05 A3025 RMK A01 T10031051  RH  070%=      5-min Rain = 0
KBY1 200258Z 09003KT M00/M05 A3025 RMK A01 T10031051  RH  070%=      5-min Rain = 0
KBY1 200259Z 08003KT M00/M05 A3025 RMK A01 T10041051  RH  070%=      5-min Rain = 0
KBY1 200300Z 08003KT M00/M05 A3025 RMK A01 T10041050  RH  071%=      5-min Rain = 0
KBY1 200301Z 07003KT M00/M05 A3025 RMK A01 T10041050  RH  071%=      5-min Rain = 0
KBY1 200302Z 06003KT M00/M05 A3025 RMK A01 T10041050  RH  071%=      5-min Rain = 0
KBY1 200303Z 06004KT M00/M05 A3025 RMK A01 T10041051  RH  071%=      5-min Rain = 0
KBY1 200304Z 06003KT M00/M05 A3025 RMK A01 T10041050  RH  071%=      5-min Rain = 0
KBY1 200305Z 07003KT M00/M05 A3025 RMK A01 T10031050  RH  071%=      5-min Rain = 0
KBY1 200306Z 07003KT M00/M05 A3025 RMK A01 T10031050  RH  071%=      5-min Rain = 0
KBY1 200307Z 08002KT M00/M05 A3025 RMK A01 T10021050  RH  070%=      5-min Rain = 0
KBY1 200308Z 08003KT M00/M05 A3026 RMK A01 T10031050  RH  070%=      5-min Rain = 0
KBY1 200309Z 07003KT M00/M05 A3025 RMK A01 T10041052  RH  070%=      5-min Rain = 0
KBY1 200310Z 07003KT M01/M05 A3025 RMK A01 T10061052  RH  071%=      5-min Rain = 0
KBY1 200311Z 07003KT M01/M05 A3025 RMK A01 T10071052  RH  071%=      5-min Rain = 0
KBY1 200312Z 08003KT M01/M05 A3025 RMK A01 T10091053  RH  072%=      5-min Rain = 0
KBY1 200313Z 09003KT M01/M05 A3024 RMK A01 T10101053  RH  072%=      5-min Rain = 0
KBY1 200314Z 10003KT M01/M05 A3024 RMK A01 T10121054  RH  073%=      5-min Rain = 0
KBY1 200315Z 10003KT M01/M06 A3024 RMK A01 T10131055  RH  073%=      5-min Rain = 0
KBY1 200316Z 11002KT M02/M06 A3024 RMK A01 T10161057  RH  073%=      5-min Rain = 0
KBY1 200317Z 12002KT M02/M06 A3024 RMK A01 T10181059  RH  074%=      5-min Rain = 0
KBY1 200318Z 12002KT M02/M06 A3024 RMK A01 T10201059  RH  075%=      5-min Rain = 0
KBY1 200319Z 11002KT M02/M06 A3024 RMK A01 T10211057  RH  076%=      5-min Rain = 0
KBY1 200320Z 10002KT M02/M06 A3024 RMK A01 T10211057  RH  077%=      5-min Rain = 0
KBY1 200321Z 10002KT M02/M06 A3024 RMK A01 T10211055  RH  077%=      5-min Rain = 0
KBY1 200322Z 09002KT M02/M05 A3024 RMK A01 T10211054  RH  078%=      5-min Rain = 0
KBY1 200323Z 09001KT M02/M05 A3024 RMK A01 T10191053  RH  078%=      5-min Rain = 0
KBY1 200324Z 11001KT M02/M05 A3025 RMK A01 T10181052  RH  078%=      5-min Rain = 0
KBY1 200325Z 11001KT M02/M05 A3025 RMK A01 T10171052  RH  077%=      5-min Rain = 0
KBY1 200326Z 11001KT M02/M05 A3025 RMK A01 T10161051  RH  077%=      5-min Rain = 0
KBY1 200327Z 10002KT M02/M05 A3024 RMK A01 T10161052  RH  076%=      5-min Rain = 0
KBY1 200328Z 11002KT M02/M05 A3024 RMK A01 T10151052  RH  076%=      5-min Rain = 0
KBY1 200329Z 11002KT M01/M05 A3024 RMK A01 T10141052  RH  076%=      5-min Rain = 0
KBY1 200330Z 12002KT M01/M05 A3024 RMK A01 T10141052  RH  075%=      5-min Rain = 0
KBY1 200331Z 12002KT M01/M05 A3024 RMK A01 T10141052  RH  075%=      5-min Rain = 0
KBY1 200332Z 12002KT M01/M05 A3024 RMK A01 T10141052  RH  075%=      5-min Rain = 0
KBY1 200333Z 11003KT M01/M05 A3024 RMK A01 T10141052  RH  075%=      5-min Rain = 0
KBY1 200334Z 11003KT M01/M05 A3024 RMK A01 T10141052  RH  075%=      5-min Rain = 0
KBY1 200335Z 11003KT M01/M05 A3024 RMK A01 T10141053  RH  075%=      5-min Rain = 0
KBY1 200336Z 11003KT M01/M05 A3024 RMK A01 T10141053  RH  075%=      5-min Rain = 0
KBY1 200337Z 11003KT M02/M05 A3024 RMK A01 T10151053  RH  075%=      5-min Rain = 0
KBY1 200338Z 11003KT M02/M05 A3024 RMK A01 T10151053  RH  075%=      5-min Rain = 0
KBY1 200339Z 10003KT M02/M05 A3024 RMK A01 T10151053  RH  075%=      5-min Rain = 0
KBY1 200340Z 10002KT M02/M05 A3024 RMK A01 T10161054  RH  075%=      5-min Rain = 0
KBY1 200341Z 09002KT M02/M05 A3024 RMK A01 T10161054  RH  075%=      5-min Rain = 0
KBY1 200342Z 09001KT M02/M05 A3024 RMK A01 T10161053  RH  076%=      5-min Rain = 0
KBY1 200343Z 08001KT M02/M05 A3024 RMK A01 T10161053  RH  076%=      5-min Rain = 0
KBY1 200344Z 11000KT M02/M05 A3024 RMK A01 T10161053  RH  076%=      5-min Rain = 0
KBY1 200345Z 10001KT M02/M05 A3024 RMK A01 T10161053  RH  076%=      5-min Rain = 0
KBY1 200346Z 10001KT M02/M05 A3024 RMK A01 T10151052  RH  076%=      5-min Rain = 0
KBY1 200347Z 10002KT M02/M05 A3024 RMK A01 T10151052  RH  076%=      5-min Rain = 0
KBY1 200348Z 10002KT M02/M05 A3024 RMK A01 T10151052  RH  076%=      5-min Rain = 0
KBY1 200349Z 10002KT M02/M05 A3024 RMK A01 T10151052  RH  076%=      5-min Rain = 0
KBY1 200350Z 10002KT M01/M05 A3024 RMK A01 T10141052  RH  076%=      5-min Rain = 0
KBY1 200351Z 09002KT M01/M05 A3025 RMK A01 T10141052  RH  075%=      5-min Rain = 0
KBY1 200352Z 08002KT M02/M05 A3024 RMK A01 T10151053  RH  075%=      5-min Rain = 0
KBY1 200353Z 08002KT M02/M05 A3024 RMK A01 T10151053  RH  075%=      5-min Rain = 0
KBY1 200354Z 08002KT M02/M05 A3024 RMK A01 T10151053  RH  075%=      5-min Rain = 0
KBY1 200355Z 09002KT M02/M05 A3024 RMK A01 T10151052  RH  076%=      5-min Rain = 0
KBY1 200356Z 08001KT M02/M05 A3024 RMK A01 T10161053  RH  076%=      5-min Rain = 0
KBY1 200357Z 08002KT M02/M05 A3024 RMK A01 T10161053  RH  076%=      5-min Rain = 0
KBY1 200358Z 07002KT M02/M05 A3024 RMK A01 T10161053  RH  076%=      5-min Rain = 0
KBY1 200359Z 07002KT M02/M05 A3024 RMK A01 T10161053  RH  076%=      5-min Rain = 0
KBY1 200400Z 07002KT M02/M05 A3024 RMK A01 T10171053  RH  076%=      5-min Rain = 0
KBY1 200401Z 07003KT M02/M05 A3024 RMK A01 T10181054  RH  076%=      5-min Rain = 0
KBY1 200402Z 07003KT M02/M05 A3024 RMK A01 T10181054  RH  076%=      5-min Rain = 0
KBY1 200403Z 07003KT M02/M05 A3024 RMK A01 T10191054  RH  077%=      5-min Rain = 0
KBY1 200404Z 07003KT M02/M05 A3024 RMK A01 T10181053  RH  077%=      5-min Rain = 0
KBY1 200405Z 07003KT M02/M05 A3024 RMK A01 T10181053  RH  077%=      5-min Rain = 0
KBY1 200406Z 07003KT M02/M05 A3024 RMK A01 T10171052  RH  077%=      5-min Rain = 0
KBY1 200407Z 07003KT M02/M05 A3024 RMK A01 T10171052  RH  077%=      5-min Rain = 0
KBY1 200408Z 07003KT M02/M05 A3024 RMK A01 T10171052  RH  077%=      5-min Rain = 0
KBY1 200409Z 07003KT M02/M05 A3024 RMK A01 T10161051  RH  077%=      5-min Rain = 0
KBY1 200410Z 07003KT M02/M05 A3024 RMK A01 T10161052  RH  077%=      5-min Rain = 0
KBY1 200411Z 07002KT M02/M05 A3024 RMK A01 T10161052  RH  077%=      5-min Rain = 0
KBY1 200412Z 06002KT M02/M05 A3024 RMK A01 T10161052  RH  077%=      5-min Rain = 0
KBY1 200413Z 06002KT M02/M05 A3025 RMK A01 T10161052  RH  077%=      5-min Rain = 0
KBY1 200414Z 05002KT M02/M05 A3025 RMK A01 T10151051  RH  077%=      5-min Rain = 0
KBY1 200415Z 06002KT M01/M05 A3025 RMK A01 T10141050  RH  076%=      5-min Rain = 0
KBY1 200416Z 07002KT M01/M05 A3024 RMK A01 T10131050  RH  076%=      5-min Rain = 0
KBY1 200417Z 08002KT M01/M05 A3024 RMK A01 T10131050  RH  076%=      5-min Rain = 0
KBY1 200418Z 08002KT M01/M05 A3025 RMK A01 T10121051  RH  075%=      5-min Rain = 0
KBY1 200419Z 08001KT M01/M05 A3025 RMK A01 T10131052  RH  075%=      5-min Rain = 0
KBY1 200420Z 07001KT M01/M05 A3025 RMK A01 T10141053  RH  075%=      5-min Rain = 0
KBY1 200421Z 07001KT M02/M05 A3025 RMK A01 T10161054  RH  075%=      5-min Rain = 0
KBY1 200422Z 08000KT M02/M05 A3025 RMK A01 T10181054  RH  076%=      5-min Rain = 0
KBY1 200423Z 00000KT M02/M05 A3025 RMK A01 T10181054  RH  077%=      5-min Rain = 0
KBY1 200424Z 00000KT M02/M05 A3025 RMK A01 T10191054  RH  077%=      5-min Rain = 0
KBY1 200425Z 00000KT M02/M05 A3025 RMK A01 T10201054  RH  078%=      5-min Rain = 0
KBY1 200426Z 00000KT M02/M05 A3025 RMK A01 T10211054  RH  078%=      5-min Rain = 0
KBY1 200427Z 00000KT M02/M05 A3025 RMK A01 T10211054  RH  078%=      5-min Rain = 0
KBY1 200428Z 00000KT M02/M05 A3025 RMK A01 T10211054  RH  078%=      5-min Rain = 0
KBY1 200429Z 00000KT M02/M05 A3025 RMK A01 T10211053  RH  079%=      5-min Rain = 0
KBY1 200430Z 00000KT M02/M05 A3025 RMK A01 T10211054  RH  078%=      5-min Rain = 0
KBY1 200431Z 00000KT M02/M05 A3025 RMK A01 T10221054  RH  078%=      5-min Rain = 0
KBY1 200432Z 00000KT M02/M05 A3025 RMK A01 T10211053  RH  079%=      5-min Rain = 0
KBY1 200433Z 00000KT M02/M05 A3025 RMK A01 T10201052  RH  079%=      5-min Rain = 0
KBY1 200434Z 00000KT M02/M05 A3025 RMK A01 T10201052  RH  078%=      5-min Rain = 0
KBY1 200435Z 03000KT M02/M05 A3025 RMK A01 T10201053  RH  078%=      5-min Rain = 0
KBY1 200436Z 02001KT M02/M05 A3025 RMK A01 T10201054  RH  078%=      5-min Rain = 0
KBY1 200437Z 02001KT M02/M05 A3025 RMK A01 T10201054  RH  078%=      5-min Rain = 0
KBY1 200438Z 03001KT M02/M05 A3026 RMK A01 T10201054  RH  078%=      5-min Rain = 0
KBY1 200439Z 03001KT M02/M05 A3026 RMK A01 T10211053  RH  078%=      5-min Rain = 0
KBY1 200440Z 04001KT M02/M05 A3026 RMK A01 T10201053  RH  079%=      5-min Rain = 0
KBY1 200441Z 05001KT M02/M05 A3026 RMK A01 T10201053  RH  078%=      5-min Rain = 0
KBY1 200442Z 07001KT M02/M05 A3026 RMK A01 T10201053  RH  078%=      5-min Rain = 0
KBY1 200443Z 06001KT M02/M05 A3025 RMK A01 T10211054  RH  078%=      5-min Rain = 0
KBY1 200444Z 06001KT M02/M05 A3025 RMK A01 T10211054  RH  078%=      5-min Rain = 0
KBY1 200445Z 06001KT M02/M05 A3025 RMK A01 T10211054  RH  078%=      5-min Rain = 0
KBY1 200446Z 07001KT M02/M05 A3025 RMK A01 T10221054  RH  078%=      5-min Rain = 0
KBY1 200447Z 08000KT M02/M06 A3025 RMK A01 T10221055  RH  078%=      5-min Rain = 0
KBY1 200448Z 08001KT M02/M06 A3025 RMK A01 T10241056  RH  078%=      5-min Rain = 0
KBY1 200449Z 08000KT M03/M06 A3025 RMK A01 T10251058  RH  078%=      5-min Rain = 0
KBY1 200450Z 07000KT M03/M06 A3025 RMK A01 T10261057  RH  079%=      5-min Rain = 0
KBY1 200451Z 00000KT M03/M06 A3025 RMK A01 T10261056  RH  080%=      5-min Rain = 0
KBY1 200452Z 00000KT M03/M06 A3025 RMK A01 T10261055  RH  081%=      5-min Rain = 0
KBY1 200453Z 05001KT M03/M06 A3025 RMK A01 T10261055  RH  081%=      5-min Rain = 0
KBY1 200454Z 05001KT M03/M05 A3025 RMK A01 T10251053  RH  081%=      5-min Rain = 0
KBY1 200455Z 06001KT M02/M05 A3025 RMK A01 T10241051  RH  081%=      5-min Rain = 0
KBY1 200456Z 08001KT M02/M05 A3024 RMK A01 T10231051  RH  081%=      5-min Rain = 0
KBY1 200457Z 08001KT M02/M05 A3024 RMK A01 T10231053  RH  080%=      5-min Rain = 0
KBY1 200458Z 09000KT M02/M06 A3024 RMK A01 T10231055  RH  079%=      5-min Rain = 0
KBY1 200459Z 00000KT M03/M06 A3024 RMK A01 T10261060  RH  078%=      5-min Rain = 0
KBY1 200500Z 00000KT M03/M06 A3024 RMK A01 T10311064  RH  078%=      5-min Rain = 0
KBY1 200501Z 00000KT M03/M06 A3024 RMK A01 T10341064  RH  079%=      5-min Rain = 0
KBY1 200502Z 00000KT M04/M06 A3025 RMK A01 T10351062  RH  082%=      5-min Rain = 0
KBY1 200503Z 11000KT M04/M06 A3025 RMK A01 T10351059  RH  083%=      5-min Rain = 0
KBY1 200504Z 11000KT M03/M06 A3025 RMK A01 T10341057  RH  084%=      5-min Rain = 0
KBY1 200505Z 00000KT M03/M06 A3025 RMK A01 T10331055  RH  084%=      5-min Rain = 0
KBY1 200506Z 00000KT M03/M06 A3025 RMK A01 T10321055  RH  084%=      5-min Rain = 0
KBY1 200507Z 00000KT M03/M05 A3025 RMK A01 T10311054  RH  084%=      5-min Rain = 0
KBY1 200508Z 00000KT M03/M05 A3026 RMK A01 T10311054  RH  084%=      5-min Rain = 0
KBY1 200509Z 00000KT M03/M05 A3026 RMK A01 T10301054  RH  084%=      5-min Rain = 0
KBY1 200510Z 00000KT M03/M05 A3026 RMK A01 T10291053  RH  083%=      5-min Rain = 0
KBY1 200511Z 00000KT M03/M05 A3026 RMK A01 T10281053  RH  083%=      5-min Rain = 0
KBY1 200512Z 00000KT M03/M05 A3026 RMK A01 T10281053  RH  083%=      5-min Rain = 0
KBY1 200513Z 00000KT M03/M05 A3026 RMK A01 T10271052  RH  083%=      5-min Rain = 0
KBY1 200514Z 00000KT M03/M05 A3026 RMK A01 T10261052  RH  082%=      5-min Rain = 0
KBY1 200515Z 00000KT M03/M05 A3026 RMK A01 T10261052  RH  082%=      5-min Rain = 0
KBY1 200516Z 00000KT M03/M05 A3025 RMK A01 T10261052  RH  082%=      5-min Rain = 0
KBY1 200517Z 10001KT M03/M05 A3025 RMK A01 T10261052  RH  082%=      5-min Rain = 0
KBY1 200518Z 10001KT M03/M05 A3025 RMK A01 T10261052  RH  082%=      5-min Rain = 0
KBY1 200519Z 11002KT M03/M06 A3025 RMK A01 T10271056  RH  081%=      5-min Rain = 0
KBY1 200520Z 11002KT M03/M06 A3025 RMK A01 T10301060  RH  080%=      5-min Rain = 0
KBY1 200521Z 11002KT M03/M06 A3025 RMK A01 T10321061  RH  080%=      5-min Rain = 0
KBY1 200522Z 12002KT M03/M06 A3025 RMK A01 T10331061  RH  081%=      5-min Rain = 0
KBY1 200523Z 13001KT M03/M06 A3025 RMK A01 T10341061  RH  082%=      5-min Rain = 0
KBY1 200524Z 14001KT M04/M06 A3025 RMK A01 T10351060  RH  083%=      5-min Rain = 0
KBY1 200525Z 14001KT M04/M06 A3025 RMK A01 T10351059  RH  084%=      5-min Rain = 0
KBY1 200526Z 14001KT M04/M06 A3025 RMK A01 T10351058  RH  084%=      5-min Rain = 0
KBY1 200527Z 13001KT M04/M06 A3025 RMK A01 T10351056  RH  085%=      5-min Rain = 0
KBY1 200528Z 14001KT M03/M06 A3025 RMK A01 T10341055  RH  085%=      5-min Rain = 0
KBY1 200529Z 14002KT M03/M06 A3025 RMK A01 T10341055  RH  085%=      5-min Rain = 0
KBY1 200530Z 13002KT M03/M06 A3025 RMK A01 T10341055  RH  085%=      5-min Rain = 0
KBY1 200531Z 13002KT M03/M06 A3025 RMK A01 T10331055  RH  085%=      5-min Rain = 0
KBY1 200532Z 11002KT M03/M06 A3025 RMK A01 T10331056  RH  085%=      5-min Rain = 0
KBY1 200533Z 10002KT M03/M06 A3025 RMK A01 T10331056  RH  084%=      5-min Rain = 0
KBY1 200534Z 10001KT M03/M06 A3025 RMK A01 T10331056  RH  084%=      5-min Rain = 0
KBY1 200535Z 11001KT M03/M06 A3025 RMK A01 T10331056  RH  084%=      5-min Rain = 0
KBY1 200536Z 12001KT M03/M06 A3025 RMK A01 T10331056  RH  084%=      5-min Rain = 0
KBY1 200537Z 13001KT M03/M06 A3025 RMK A01 T10331056  RH  084%=      5-min Rain = 0
KBY1 200538Z 14001KT M03/M06 A3025 RMK A01 T10331056  RH  084%=      5-min Rain = 0
KBY1 200539Z 14001KT M03/M06 A3026 RMK A01 T10331056  RH  084%=      5-min Rain = 0
KBY1 200540Z 13001KT M03/M06 A3026 RMK A01 T10331056  RH  084%=      5-min Rain = 0
KBY1 200541Z 12001KT M03/M06 A3026 RMK A01 T10331056  RH  084%=      5-min Rain = 0
KBY1 200542Z 11001KT M03/M06 A3025 RMK A01 T10331055  RH  085%=      5-min Rain = 0
KBY1 200543Z 09001KT M03/M06 A3025 RMK A01 T10331055  RH  084%=      5-min Rain = 0
KBY1 200544Z 10001KT M03/M06 A3025 RMK A01 T10321056  RH  084%=      5-min Rain = 0
KBY1 200545Z 09002KT M03/M06 A3025 RMK A01 T10321056  RH  084%=      5-min Rain = 0
KBY1 200546Z 09002KT M03/M06 A3025 RMK A01 T10331056  RH  084%=      5-min Rain = 0
KBY1 200547Z 09002KT M03/M06 A3025 RMK A01 T10331056  RH  084%=      5-min Rain = 0
KBY1 200548Z 09001KT M03/M06 A3025 RMK A01 T10321056  RH  084%=      5-min Rain = 0
KBY1 200549Z 09002KT M03/M06 A3025 RMK A01 T10321056  RH  084%=      5-min Rain = 0
KBY1 200550Z 09002KT M03/M06 A3025 RMK A01 T10321056  RH  084%=      5-min Rain = 0
KBY1 200551Z 09002KT M03/M06 A3025 RMK A01 T10321056  RH  084%=      5-min Rain = 0
KBY1 200552Z 09001KT M03/M06 A3025 RMK A01 T10321056  RH  084%=      5-min Rain = 0
KBY1 200553Z 09001KT M03/M06 A3025 RMK A01 T10331056  RH  084%=      5-min Rain = 0
KBY1 200554Z 09001KT M03/M06 A3025 RMK A01 T10331056  RH  084%=      5-min Rain = 0
KBY1 200555Z 09001KT M03/M06 A3025 RMK A01 T10331056  RH  084%=      5-min Rain = 0
KBY1 200556Z 09001KT M03/M06 A3025 RMK A01 T10341056  RH  084%=      5-min Rain = 0
KBY1 200557Z 09001KT M03/M06 A3025 RMK A01 T10331056  RH  084%=      5-min Rain = 0
KBY1 200558Z 08001KT M03/M06 A3025 RMK A01 T10331055  RH  085%=      5-min Rain = 0
KBY1 200559Z 08001KT M03/M06 A3025 RMK A01 T10341056  RH  085%=      5-min Rain = 0

Page generated in 0.1532 seconds.